Observation data for Lake McClellan 2NW on 08/06/2020      Previous  Date       Current Mesonet Observations  Soil Data  Daily Summary Page  Observations in Plain Language
KMC5 060500Z 12011KT 22/18 A3005 RMK A01 T02170180  RH  080%=      5-min Rain = 0
KMC5 060501Z 12010KT 22/18 A3005 RMK A01 T02170180  RH  080%=      5-min Rain = 0
KMC5 060502Z 12010KT 22/18 A3005 RMK A01 T02170181  RH  080%=      5-min Rain = 0
KMC5 060503Z 12012KT 22/18 A3005 RMK A01 T02170181  RH  080%=      5-min Rain = 0
KMC5 060504Z 12012KT 22/18 A3005 RMK A01 T02170181  RH  080%=      5-min Rain = 0
KMC5 060505Z 12011KT 22/18 A3005 RMK A01 T02170181  RH  080%=      5-min Rain = 0
KMC5 060506Z 12010KT 22/18 A3005 RMK A01 T02170181  RH  080%=      5-min Rain = 0
KMC5 060507Z 11010KT 22/18 A3005 RMK A01 T02170181  RH  080%=      5-min Rain = 0
KMC5 060508Z 12011KT 22/18 A3005 RMK A01 T02170181  RH  080%=      5-min Rain = 0
KMC5 060509Z 12010KT 22/18 A3005 RMK A01 T02170181  RH  080%=      5-min Rain = 0
KMC5 060510Z 12011KT 22/18 A3006 RMK A01 T02160181  RH  080%=      5-min Rain = 0
KMC5 060511Z 12011KT 22/18 A3005 RMK A01 T02170181  RH  080%=      5-min Rain = 0
KMC5 060512Z 12011KT 22/18 A3005 RMK A01 T02160181  RH  081%=      5-min Rain = 0
KMC5 060513Z 12013KT 22/18 A3006 RMK A01 T02160181  RH  080%=      5-min Rain = 0
KMC5 060514Z 13012KT 22/18 A3006 RMK A01 T02170181  RH  080%=      5-min Rain = 0
KMC5 060515Z 12012KT 22/18 A3005 RMK A01 T02170182  RH  080%=      5-min Rain = 0
KMC5 060516Z 12012KT 22/18 A3005 RMK A01 T02170182  RH  080%=      5-min Rain = 0
KMC5 060517Z 11012KT 22/18 A3005 RMK A01 T02170182  RH  081%=      5-min Rain = 0
KMC5 060518Z 12010KT 22/18 A3005 RMK A01 T02160182  RH  081%=      5-min Rain = 0
KMC5 060519Z 11011KT 22/18 A3005 RMK A01 T02160182  RH  081%=      5-min Rain = 0
KMC5 060520Z 11010KT 22/18 A3005 RMK A01 T02160182  RH  081%=      5-min Rain = 0
KMC5 060521Z 11011KT 22/18 A3005 RMK A01 T02160182  RH  081%=      5-min Rain = 0
KMC5 060522Z 12011KT 22/18 A3005 RMK A01 T02160182  RH  081%=      5-min Rain = 0
KMC5 060523Z 11010KT 22/18 A3005 RMK A01 T02150182  RH  081%=      5-min Rain = 0
KMC5 060524Z 12011KT 22/18 A3005 RMK A01 T02150182  RH  082%=      5-min Rain = 0
KMC5 060525Z 12011KT 22/18 A3005 RMK A01 T02150182  RH  082%=      5-min Rain = 0
KMC5 060526Z 12012KT 21/18 A3005 RMK A01 T02140182  RH  082%=      5-min Rain = 0
KMC5 060527Z 12012KT 21/18 A3005 RMK A01 T02140182  RH  082%=      5-min Rain = 0
KMC5 060528Z 12012KT 21/18 A3005 RMK A01 T02140182  RH  082%=      5-min Rain = 0
KMC5 060529Z 12012KT 21/18 A3005 RMK A01 T02140182  RH  082%=      5-min Rain = 0
KMC5 060530Z 12012KT 22/18 A3005 RMK A01 T02150182  RH  082%=      5-min Rain = 0
KMC5 060531Z 12010KT 22/18 A3005 RMK A01 T02150182  RH  082%=      5-min Rain = 0
KMC5 060532Z 12010KT 21/18 A3005 RMK A01 T02140182  RH  082%=      5-min Rain = 0
KMC5 060533Z 12010KT 21/18 A3005 RMK A01 T02140183  RH  082%=      5-min Rain = 0
KMC5 060534Z 12012KT 21/18 A3005 RMK A01 T02140182  RH  082%=      5-min Rain = 0
KMC5 060535Z 12011KT 21/18 A3005 RMK A01 T02140183  RH  082%=      5-min Rain = 0
KMC5 060536Z 11010KT 21/18 A3005 RMK A01 T02140183  RH  083%=      5-min Rain = 0
KMC5 060537Z 11009KT 21/18 A3005 RMK A01 T02130183  RH  083%=      5-min Rain = 0
KMC5 060538Z 12010KT 21/18 A3005 RMK A01 T02130183  RH  083%=      5-min Rain = 0
KMC5 060539Z 12011KT 21/18 A3005 RMK A01 T02120183  RH  083%=      5-min Rain = 0
KMC5 060540Z 12011KT 21/18 A3005 RMK A01 T02120183  RH  083%=      5-min Rain = 0
KMC5 060541Z 12012KT 21/18 A3005 RMK A01 T02120183  RH  083%=      5-min Rain = 0
KMC5 060542Z 12011KT 21/18 A3005 RMK A01 T02120182  RH  083%=      5-min Rain = 0
KMC5 060543Z 12008KT 21/18 A3005 RMK A01 T02130183  RH  083%=      5-min Rain = 0
KMC5 060544Z 13010KT 21/18 A3005 RMK A01 T02130183  RH  083%=      5-min Rain = 0
KMC5 060545Z 12010KT 21/18 A3005 RMK A01 T02120183  RH  083%=      5-min Rain = 0
KMC5 060546Z 11008KT 21/18 A3005 RMK A01 T02120183  RH  083%=      5-min Rain = 0
KMC5 060547Z 11008KT 21/18 A3005 RMK A01 T02120183  RH  084%=      5-min Rain = 0
KMC5 060548Z 12007KT 21/18 A3005 RMK A01 T02110183  RH  084%=      5-min Rain = 0
KMC5 060549Z 12010KT 21/18 A3005 RMK A01 T02110183  RH  084%=      5-min Rain = 0
KMC5 060550Z 12009KT 21/18 A3005 RMK A01 T02110183  RH  084%=      5-min Rain = 0
KMC5 060551Z 12011KT 21/18 A3005 RMK A01 T02110183  RH  084%=      5-min Rain = 0
KMC5 060552Z 12009KT 21/18 A3005 RMK A01 T02110183  RH  084%=      5-min Rain = 0
KMC5 060553Z 13010KT 21/18 A3005 RMK A01 T02110183  RH  084%=      5-min Rain = 0
KMC5 060554Z 12010KT 21/18 A3005 RMK A01 T02110183  RH  084%=      5-min Rain = 0
KMC5 060555Z 12010KT 21/18 A3005 RMK A01 T02110183  RH  084%=      5-min Rain = 0
KMC5 060556Z 12009KT 21/18 A3005 RMK A01 T02110184  RH  084%=      5-min Rain = 0
KMC5 060557Z 12007KT 21/18 A3005 RMK A01 T02100183  RH  084%=      5-min Rain = 0
KMC5 060558Z 12009KT 21/18 A3006 RMK A01 T02100183  RH  085%=      5-min Rain = 0
KMC5 060559Z 13008KT 21/18 A3006 RMK A01 T02100183  RH  085%=      5-min Rain = 0
KMC5 060600Z 12008KT 21/18 A3006 RMK A01 T02090183  RH  085%=      5-min Rain = 0
KMC5 060601Z 12008KT 21/18 A3006 RMK A01 T02090183  RH  085%=      5-min Rain = 0
KMC5 060602Z 12008KT 21/18 A3006 RMK A01 T02090184  RH  085%=      5-min Rain = 0
KMC5 060603Z 12009KT 21/18 A3006 RMK A01 T02090183  RH  085%=      5-min Rain = 0
KMC5 060604Z 13009KT 21/18 A3006 RMK A01 T02090183  RH  085%=      5-min Rain = 0
KMC5 060605Z 12008KT 21/18 A3006 RMK A01 T02100183  RH  085%=      5-min Rain = 0
KMC5 060606Z 12008KT 21/18 A3006 RMK A01 T02090183  RH  085%=      5-min Rain = 0
KMC5 060607Z 11008KT 21/18 A3006 RMK A01 T02090184  RH  085%=      5-min Rain = 0
KMC5 060608Z 12009KT 21/18 A3006 RMK A01 T02090184  RH  085%=      5-min Rain = 0
KMC5 060609Z 12009KT 21/18 A3006 RMK A01 T02090183  RH  085%=      5-min Rain = 0
KMC5 060610Z 12008KT 21/18 A3006 RMK A01 T02090183  RH  085%=      5-min Rain = 0
KMC5 060611Z 13007KT 21/18 A3006 RMK A01 T02090184  RH  085%=      5-min Rain = 0
KMC5 060612Z 12008KT 21/18 A3006 RMK A01 T02090184  RH  085%=      5-min Rain = 0
KMC5 060613Z 12008KT 21/18 A3006 RMK A01 T02090184  RH  086%=      5-min Rain = 0
KMC5 060614Z 12008KT 21/18 A3006 RMK A01 T02080184  RH  086%=      5-min Rain = 0
KMC5 060615Z 12008KT 21/18 A3006 RMK A01 T02080184  RH  086%=      5-min Rain = 0
KMC5 060616Z 12007KT 21/18 A3006 RMK A01 T02090184  RH  086%=      5-min Rain = 0
KMC5 060617Z 12008KT 21/18 A3006 RMK A01 T02080184  RH  086%=      5-min Rain = 0
KMC5 060618Z 12008KT 21/18 A3006 RMK A01 T02080184  RH  086%=      5-min Rain = 0
KMC5 060619Z 12007KT 21/18 A3006 RMK A01 T02080184  RH  086%=      5-min Rain = 0
KMC5 060620Z 12007KT 21/18 A3006 RMK A01 T02080184  RH  086%=      5-min Rain = 0
KMC5 060621Z 12009KT 21/18 A3006 RMK A01 T02080184  RH  086%=      5-min Rain = 0
KMC5 060622Z 12010KT 21/18 A3006 RMK A01 T02080184  RH  086%=      5-min Rain = 0
KMC5 060623Z 11008KT 21/18 A3006 RMK A01 T02080184  RH  086%=      5-min Rain = 0
KMC5 060624Z 12009KT 21/18 A3006 RMK A01 T02080184  RH  086%=      5-min Rain = 0
KMC5 060625Z 12009KT 21/18 A3006 RMK A01 T02090184  RH  086%=      5-min Rain = 0
KMC5 060626Z 12009KT 21/18 A3005 RMK A01 T02090184  RH  086%=      5-min Rain = 0
KMC5 060627Z 12008KT 21/18 A3005 RMK A01 T02090184  RH  086%=      5-min Rain = 0
KMC5 060628Z 12009KT 21/18 A3005 RMK A01 T02090184  RH  086%=      5-min Rain = 0
KMC5 060629Z 12009KT 21/19 A3005 RMK A01 T02090185  RH  086%=      5-min Rain = 0
KMC5 060630Z 12009KT 21/18 A3005 RMK A01 T02090184  RH  086%=      5-min Rain = 0
KMC5 060631Z 13009KT 21/18 A3005 RMK A01 T02080184  RH  086%=      5-min Rain = 0
KMC5 060632Z 12010KT 21/18 A3005 RMK A01 T02080184  RH  086%=      5-min Rain = 0
KMC5 060633Z 13009KT 21/19 A3005 RMK A01 T02090185  RH  086%=      5-min Rain = 0
KMC5 060634Z 12009KT 21/19 A3005 RMK A01 T02090185  RH  086%=      5-min Rain = 0
KMC5 060635Z 12009KT 21/19 A3005 RMK A01 T02080185  RH  086%=      5-min Rain = 0
KMC5 060636Z 13009KT 21/19 A3005 RMK A01 T02080185  RH  086%=      5-min Rain = 0
KMC5 060637Z 12010KT 21/19 A3005 RMK A01 T02080185  RH  086%=      5-min Rain = 0
KMC5 060638Z 13009KT 21/19 A3005 RMK A01 T02080185  RH  086%=      5-min Rain = 0
KMC5 060639Z 13008KT 21/19 A3005 RMK A01 T02080185  RH  087%=      5-min Rain = 0
KMC5 060640Z 12009KT 21/19 A3005 RMK A01 T02070185  RH  087%=      5-min Rain = 0
KMC5 060641Z 12008KT 21/19 A3005 RMK A01 T02070185  RH  087%=      5-min Rain = 0
KMC5 060642Z 12009KT 21/19 A3005 RMK A01 T02070185  RH  087%=      5-min Rain = 0
KMC5 060643Z 12009KT 21/19 A3005 RMK A01 T02070185  RH  087%=      5-min Rain = 0
KMC5 060644Z 11007KT 21/19 A3005 RMK A01 T02070185  RH  087%=      5-min Rain = 0
KMC5 060645Z 12008KT 21/19 A3005 RMK A01 T02070185  RH  087%=      5-min Rain = 0
KMC5 060646Z 11008KT 21/19 A3005 RMK A01 T02060185  RH  088%=      5-min Rain = 0
KMC5 060647Z 12009KT 21/19 A3005 RMK A01 T02060185  RH  088%=      5-min Rain = 0
KMC5 060648Z 12008KT 21/19 A3005 RMK A01 T02060185  RH  088%=      5-min Rain = 0
KMC5 060649Z 11008KT 21/19 A3005 RMK A01 T02060185  RH  088%=      5-min Rain = 0
KMC5 060650Z 11008KT 21/19 A3005 RMK A01 T02060185  RH  088%=      5-min Rain = 0
KMC5 060651Z 11009KT 21/19 A3005 RMK A01 T02060185  RH  088%=      5-min Rain = 0
KMC5 060652Z 11008KT 21/19 A3005 RMK A01 T02060185  RH  088%=      5-min Rain = 0
KMC5 060653Z 11008KT 21/19 A3005 RMK A01 T02060185  RH  088%=      5-min Rain = 0
KMC5 060654Z 11009KT 21/19 A3005 RMK A01 T02060185  RH  088%=      5-min Rain = 0
KMC5 060655Z 11008KT 21/19 A3005 RMK A01 T02060186  RH  088%=      5-min Rain = 0
KMC5 060656Z 11008KT 21/19 A3005 RMK A01 T02060186  RH  088%=      5-min Rain = 0
KMC5 060657Z 11009KT 21/19 A3005 RMK A01 T02060186  RH  088%=      5-min Rain = 0
KMC5 060658Z 10009KT 21/19 A3005 RMK A01 T02060186  RH  088%=      5-min Rain = 0
KMC5 060659Z 10008KT 21/19 A3005 RMK A01 T02060186  RH  088%=      5-min Rain = 0
KMC5 060700Z 11008KT 21/19 A3005 RMK A01 T02060186  RH  088%=      5-min Rain = 0
KMC5 060701Z 11007KT 21/19 A3005 RMK A01 T02050186  RH  088%=      5-min Rain = 0
KMC5 060702Z 11008KT 21/19 A3005 RMK A01 T02050186  RH  089%=      5-min Rain = 0
KMC5 060703Z 11009KT 21/19 A3005 RMK A01 T02050186  RH  089%=      5-min Rain = 0
KMC5 060704Z 11008KT 21/19 A3005 RMK A01 T02050186  RH  089%=      5-min Rain = 0
KMC5 060705Z 11008KT 21/19 A3005 RMK A01 T02050186  RH  089%=      5-min Rain = 0
KMC5 060706Z 11007KT 21/19 A3005 RMK A01 T02050186  RH  089%=      5-min Rain = 0
KMC5 060707Z 11008KT 21/19 A3005 RMK A01 T02050186  RH  089%=      5-min Rain = 0
KMC5 060708Z 11007KT 21/19 A3005 RMK A01 T02050186  RH  089%=      5-min Rain = 0
KMC5 060709Z 11008KT 20/19 A3005 RMK A01 T02040186  RH  089%=      5-min Rain = 0
KMC5 060710Z 11008KT 20/19 A3005 RMK A01 T02040186  RH  089%=      5-min Rain = 0
KMC5 060711Z 11008KT 20/19 A3005 RMK A01 T02040186  RH  089%=      5-min Rain = 0
KMC5 060712Z 11008KT 20/19 A3005 RMK A01 T02040186  RH  089%=      5-min Rain = 0
KMC5 060713Z 10008KT 20/19 A3005 RMK A01 T02040186  RH  090%=      5-min Rain = 0
KMC5 060714Z 10008KT 20/19 A3005 RMK A01 T02040186  RH  090%=      5-min Rain = 0
KMC5 060715Z 10009KT 20/19 A3005 RMK A01 T02030186  RH  090%=      5-min Rain = 0
KMC5 060716Z 10008KT 20/19 A3005 RMK A01 T02030186  RH  090%=      5-min Rain = 0
KMC5 060717Z 10009KT 20/19 A3005 RMK A01 T02030186  RH  090%=      5-min Rain = 0
KMC5 060718Z 11008KT 20/19 A3005 RMK A01 T02040187  RH  090%=      5-min Rain = 0
KMC5 060719Z 10010KT 20/19 A3005 RMK A01 T02040187  RH  090%=      5-min Rain = 0
KMC5 060720Z 11010KT 20/19 A3005 RMK A01 T02040187  RH  090%=      5-min Rain = 0
KMC5 060721Z 10008KT 20/19 A3005 RMK A01 T02040187  RH  090%=      5-min Rain = 0
KMC5 060722Z 10008KT 20/19 A3005 RMK A01 T02040187  RH  090%=      5-min Rain = 0
KMC5 060723Z 10008KT 20/19 A3005 RMK A01 T02040187  RH  090%=      5-min Rain = 0
KMC5 060724Z 10008KT 20/19 A3005 RMK A01 T02030187  RH  090%=      5-min Rain = 0
KMC5 060725Z 10009KT 20/19 A3005 RMK A01 T02030187  RH  090%=      5-min Rain = 0
KMC5 060726Z 10008KT 20/19 A3005 RMK A01 T02030187  RH  090%=      5-min Rain = 0
KMC5 060727Z 10007KT 20/19 A3005 RMK A01 T02030187  RH  090%=      5-min Rain = 0
KMC5 060728Z 09008KT 20/19 A3005 RMK A01 T02030187  RH  090%=      5-min Rain = 0
KMC5 060729Z 09008KT 20/19 A3005 RMK A01 T02030187  RH  090%=      5-min Rain = 0
KMC5 060730Z 10007KT 20/19 A3005 RMK A01 T02030187  RH  090%=      5-min Rain = 0
KMC5 060731Z 09008KT 20/19 A3005 RMK A01 T02030187  RH  090%=      5-min Rain = 0
KMC5 060732Z 10008KT 20/19 A3005 RMK A01 T02030187  RH  090%=      5-min Rain = 0
KMC5 060733Z 09008KT 20/19 A3005 RMK A01 T02030187  RH  090%=      5-min Rain = 0
KMC5 060734Z 10008KT 20/19 A3005 RMK A01 T02030187  RH  090%=      5-min Rain = 0
KMC5 060735Z 10008KT 20/19 A3004 RMK A01 T02030187  RH  091%=      5-min Rain = 0
KMC5 060736Z 10009KT 20/19 A3004 RMK A01 T02030187  RH  091%=      5-min Rain = 0
KMC5 060737Z 10008KT 20/19 A3004 RMK A01 T02030187  RH  091%=      5-min Rain = 0
KMC5 060738Z 10008KT 20/19 A3004 RMK A01 T02030187  RH  091%=      5-min Rain = 0
KMC5 060739Z 10009KT 20/19 A3004 RMK A01 T02030187  RH  091%=      5-min Rain = 0
KMC5 060740Z 10009KT 20/19 A3004 RMK A01 T02030188  RH  091%=      5-min Rain = 0
KMC5 060741Z 09009KT 20/19 A3004 RMK A01 T02030188  RH  091%=      5-min Rain = 0
KMC5 060742Z 09008KT 20/19 A3004 RMK A01 T02030187  RH  091%=      5-min Rain = 0
KMC5 060743Z 10008KT 20/19 A3004 RMK A01 T02030188  RH  091%=      5-min Rain = 0
KMC5 060744Z 10008KT 20/19 A3004 RMK A01 T02020188  RH  091%=      5-min Rain = 0
KMC5 060745Z 10008KT 20/19 A3004 RMK A01 T02020188  RH  091%=      5-min Rain = 0
KMC5 060746Z 10009KT 20/19 A3004 RMK A01 T02020188  RH  092%=      5-min Rain = 0
KMC5 060747Z 10009KT 20/19 A3004 RMK A01 T02020188  RH  092%=      5-min Rain = 0
KMC5 060748Z 10009KT 20/19 A3004 RMK A01 T02020188  RH  092%=      5-min Rain = 0
KMC5 060749Z 11009KT 20/19 A3004 RMK A01 T02020188  RH  092%=      5-min Rain = 0
KMC5 060750Z 11009KT 20/19 A3004 RMK A01 T02030188  RH  091%=      5-min Rain = 0
KMC5 060751Z 11009KT 20/19 A3004 RMK A01 T02030189  RH  091%=      5-min Rain = 0
KMC5 060752Z 11009KT 20/19 A3004 RMK A01 T02040189  RH  091%=      5-min Rain = 0
KMC5 060753Z 11008KT 20/19 A3004 RMK A01 T02030189  RH  091%=      5-min Rain = 0
KMC5 060754Z 11009KT 20/19 A3004 RMK A01 T02030189  RH  091%=      5-min Rain = 0
KMC5 060755Z 11008KT 20/19 A3004 RMK A01 T02030189  RH  092%=      5-min Rain = 0
KMC5 060756Z 11009KT 20/19 A3004 RMK A01 T02030189  RH  092%=      5-min Rain = 0
KMC5 060757Z 12008KT 20/19 A3004 RMK A01 T02030189  RH  092%=      5-min Rain = 0
KMC5 060758Z 11007KT 20/19 A3004 RMK A01 T02030189  RH  092%=      5-min Rain = 0
KMC5 060759Z 11007KT 20/19 A3004 RMK A01 T02020189  RH  092%=      5-min Rain = 0
KMC5 060800Z 12007KT 20/19 A3004 RMK A01 T02020189  RH  092%=      5-min Rain = 0
KMC5 060801Z 12007KT 20/19 A3004 RMK A01 T02020189  RH  092%=      5-min Rain = 0
KMC5 060802Z 12007KT 20/19 A3004 RMK A01 T02020189  RH  092%=      5-min Rain = 0
KMC5 060803Z 12007KT 20/19 A3004 RMK A01 T02020189  RH  092%=      5-min Rain = 0
KMC5 060804Z 12007KT 20/19 A3004 RMK A01 T02010189  RH  093%=      5-min Rain = 0
KMC5 060805Z 12007KT 20/19 A3004 RMK A01 T02010189  RH  093%=      5-min Rain = 0
KMC5 060806Z 11007KT 20/19 A3004 RMK A01 T02010189  RH  093%=      5-min Rain = 0
KMC5 060807Z 11006KT 20/19 A3004 RMK A01 T02010189  RH  093%=      5-min Rain = 0
KMC5 060808Z 11006KT 20/19 A3004 RMK A01 T02010189  RH  093%=      5-min Rain = 0
KMC5 060809Z 11007KT 20/19 A3004 RMK A01 T02010189  RH  093%=      5-min Rain = 0
KMC5 060810Z 11008KT 20/19 A3004 RMK A01 T02010189  RH  093%=      5-min Rain = 0
KMC5 060811Z 11007KT 20/19 A3004 RMK A01 T02010189  RH  093%=      5-min Rain = 0
KMC5 060812Z 11008KT 20/19 A3004 RMK A01 T02010189  RH  093%=      5-min Rain = 0
KMC5 060813Z 11007KT 20/19 A3004 RMK A01 T02010189  RH  093%=      5-min Rain = 0
KMC5 060814Z 11007KT 20/19 A3004 RMK A01 T02010189  RH  093%=      5-min Rain = 0
KMC5 060815Z 11007KT 20/19 A3004 RMK A01 T02010189  RH  093%=      5-min Rain = 0
KMC5 060816Z 11007KT 20/19 A3004 RMK A01 T02010190  RH  093%=      5-min Rain = 0
KMC5 060817Z 12007KT 20/19 A3004 RMK A01 T02010189  RH  093%=      5-min Rain = 0
KMC5 060818Z 12007KT 20/19 A3004 RMK A01 T02010189  RH  093%=      5-min Rain = 0
KMC5 060819Z 12006KT 20/19 A3004 RMK A01 T02010189  RH  093%=      5-min Rain = 0
KMC5 060820Z 11007KT 20/19 A3004 RMK A01 T02000189  RH  093%=      5-min Rain = 0
KMC5 060821Z 12007KT 20/19 A3004 RMK A01 T02000190  RH  094%=      5-min Rain = 0
KMC5 060822Z 12006KT 20/19 A3004 RMK A01 T02000190  RH  094%=      5-min Rain = 0
KMC5 060823Z 12006KT 20/19 A3004 RMK A01 T02000190  RH  094%=      5-min Rain = 0
KMC5 060824Z 12006KT 20/19 A3003 RMK A01 T02000190  RH  094%=      5-min Rain = 0
KMC5 060825Z 12007KT 20/19 A3003 RMK A01 T02000190  RH  094%=      5-min Rain = 0
KMC5 060826Z 12007KT 20/19 A3003 RMK A01 T02000190  RH  094%=      5-min Rain = 0
KMC5 060827Z 12007KT 20/19 A3003 RMK A01 T02000190  RH  094%=      5-min Rain = 0
KMC5 060828Z 12007KT 20/19 A3003 RMK A01 T02000190  RH  094%=      5-min Rain = 0
KMC5 060829Z 13008KT 20/19 A3003 RMK A01 T02000190  RH  094%=      5-min Rain = 0
KMC5 060830Z 13008KT 20/19 A3003 RMK A01 T02000190  RH  094%=      5-min Rain = 0
KMC5 060831Z 13007KT 20/19 A3003 RMK A01 T02000190  RH  094%=      5-min Rain = 0
KMC5 060832Z 13009KT 20/19 A3003 RMK A01 T02000190  RH  094%=      5-min Rain = 0
KMC5 060833Z 13011KT 20/19 A3003 RMK A01 T02000190  RH  094%=      5-min Rain = 0
KMC5 060834Z 14008KT 20/19 A3003 RMK A01 T02010190  RH  094%=      5-min Rain = 0
KMC5 060835Z 13009KT 20/19 A3003 RMK A01 T02010190  RH  093%=      5-min Rain = 0
KMC5 060836Z 14009KT 20/19 A3003 RMK A01 T02010190  RH  093%=      5-min Rain = 0
KMC5 060837Z 14009KT 20/19 A3003 RMK A01 T02010190  RH  093%=      5-min Rain = 0
KMC5 060838Z 14010KT 20/19 A3003 RMK A01 T02010190  RH  093%=      5-min Rain = 0
KMC5 060839Z 13009KT 20/19 A3003 RMK A01 T02010190  RH  093%=      5-min Rain = 0
KMC5 060840Z 14008KT 20/19 A3003 RMK A01 T02010190  RH  093%=      5-min Rain = 0
KMC5 060841Z 14008KT 20/19 A3003 RMK A01 T02010190  RH  093%=      5-min Rain = 0
KMC5 060842Z 13009KT 20/19 A3003 RMK A01 T02010190  RH  093%=      5-min Rain = 0
KMC5 060843Z 14008KT 20/19 A3003 RMK A01 T02010190  RH  093%=      5-min Rain = 0
KMC5 060844Z 13009KT 20/19 A3003 RMK A01 T02010190  RH  094%=      5-min Rain = 0
KMC5 060845Z 13008KT 20/19 A3003 RMK A01 T02010190  RH  094%=      5-min Rain = 0
KMC5 060846Z 13008KT 20/19 A3003 RMK A01 T02010190  RH  094%=      5-min Rain = 0
KMC5 060847Z 12008KT 20/19 A3003 RMK A01 T02010190  RH  094%=      5-min Rain = 0
KMC5 060848Z 12008KT 20/19 A3003 RMK A01 T02000190  RH  094%=      5-min Rain = 0
KMC5 060849Z 12009KT 20/19 A3003 RMK A01 T02000190  RH  094%=      5-min Rain = 0
KMC5 060850Z 12008KT 20/19 A3003 RMK A01 T02000190  RH  094%=      5-min Rain = 0
KMC5 060851Z 11007KT 20/19 A3003 RMK A01 T02000190  RH  094%=      5-min Rain = 0
KMC5 060852Z 11009KT 20/19 A3003 RMK A01 T02000190  RH  094%=      5-min Rain = 0
KMC5 060853Z 11007KT 20/19 A3003 RMK A01 T02000190  RH  094%=      5-min Rain = 0
KMC5 060854Z 12007KT 20/19 A3003 RMK A01 T02000190  RH  094%=      5-min Rain = 0
KMC5 060855Z 11007KT 20/19 A3003 RMK A01 T02000190  RH  094%=      5-min Rain = 0
KMC5 060856Z 11008KT 20/19 A3003 RMK A01 T01990190  RH  094%=      5-min Rain = 0
KMC5 060857Z 11008KT 20/19 A3003 RMK A01 T01990190  RH  094%=      5-min Rain = 0
KMC5 060858Z 11009KT 20/19 A3003 RMK A01 T01990190  RH  095%=      5-min Rain = 0
KMC5 060859Z 12009KT 20/19 A3003 RMK A01 T01990190  RH  095%=      5-min Rain = 0
KMC5 060900Z 11010KT 20/19 A3003 RMK A01 T01990190  RH  095%=      5-min Rain = 0
KMC5 060901Z 12009KT 20/19 A3003 RMK A01 T01990190  RH  095%=      5-min Rain = 0
KMC5 060902Z 11008KT 20/19 A3003 RMK A01 T01990190  RH  095%=      5-min Rain = 0
KMC5 060903Z 11010KT 20/19 A3003 RMK A01 T01990190  RH  095%=      5-min Rain = 0
KMC5 060904Z 11010KT 20/19 A3003 RMK A01 T01990191  RH  095%=      5-min Rain = 0
KMC5 060905Z 12010KT 20/19 A3003 RMK A01 T01990191  RH  095%=      5-min Rain = 0
KMC5 060906Z 12010KT 20/19 A3003 RMK A01 T02000191  RH  095%=      5-min Rain = 0
KMC5 060907Z 12010KT 20/19 A3002 RMK A01 T01990191  RH  095%=      5-min Rain = 0
KMC5 060908Z 12009KT 20/19 A3002 RMK A01 T01990191  RH  095%=      5-min Rain = 0
KMC5 060909Z 12010KT 20/19 A3002 RMK A01 T01990191  RH  095%=      5-min Rain = 0
KMC5 060910Z 12011KT 20/19 A3002 RMK A01 T01990191  RH  095%=      5-min Rain = 0
KMC5 060911Z 12010KT 20/19 A3002 RMK A01 T01990191  RH  095%=      5-min Rain = 0
KMC5 060912Z 12010KT 20/19 A3002 RMK A01 T01990191  RH  095%=      5-min Rain = 0
KMC5 060913Z 12010KT 20/19 A3002 RMK A01 T01990191  RH  095%=      5-min Rain = 0
KMC5 060914Z 11010KT 20/19 A3002 RMK A01 T01990191  RH  095%=      5-min Rain = 0
KMC5 060915Z 11010KT 20/19 A3002 RMK A01 T01990191  RH  095%=      5-min Rain = 0
KMC5 060916Z 11010KT 20/19 A3002 RMK A01 T01990191  RH  095%=      5-min Rain = 0
KMC5 060917Z 11011KT 20/19 A3002 RMK A01 T01990192  RH  095%=      5-min Rain = 0
KMC5 060918Z 12010KT 20/19 A3002 RMK A01 T01990191  RH  095%=      5-min Rain = 0
KMC5 060919Z 11010KT 20/19 A3002 RMK A01 T01990191  RH  096%=      5-min Rain = 0
KMC5 060920Z 11009KT 20/19 A3002 RMK A01 T01990191  RH  096%=      5-min Rain = 0
KMC5 060921Z 12008KT 20/19 A3002 RMK A01 T01980191  RH  096%=      5-min Rain = 0
KMC5 060922Z 12009KT 20/19 A3002 RMK A01 T01980191  RH  096%=      5-min Rain = 0
KMC5 060923Z 12011KT 20/19 A3002 RMK A01 T01980191  RH  096%=      5-min Rain = 0
KMC5 060924Z 12009KT 20/19 A3002 RMK A01 T01980191  RH  096%=      5-min Rain = 0
KMC5 060925Z 12010KT 20/19 A3002 RMK A01 T01980191  RH  096%=      5-min Rain = 0
KMC5 060926Z 12009KT 20/19 A3002 RMK A01 T01980191  RH  096%=      5-min Rain = 0
KMC5 060927Z 12011KT 20/19 A3002 RMK A01 T01980191  RH  096%=      5-min Rain = 0
KMC5 060928Z 12008KT 20/19 A3002 RMK A01 T01980191  RH  096%=      5-min Rain = 0
KMC5 060929Z 12009KT 20/19 A3001 RMK A01 T01980191  RH  096%=      5-min Rain = 0
KMC5 060930Z 12010KT 20/19 A3001 RMK A01 T01980191  RH  096%=      5-min Rain = 0
KMC5 060931Z 12010KT 20/19 A3001 RMK A01 T01980192  RH  096%=      5-min Rain = 0
KMC5 060932Z 12010KT 20/19 A3001 RMK A01 T01980192  RH  096%=      5-min Rain = 0
KMC5 060933Z 13009KT 20/19 A3001 RMK A01 T01980192  RH  096%=      5-min Rain = 0
KMC5 060934Z 12009KT 20/19 A3001 RMK A01 T01980192  RH  096%=      5-min Rain = 0
KMC5 060935Z 13009KT 20/19 A3001 RMK A01 T01980192  RH  096%=      5-min Rain = 0
KMC5 060936Z 12007KT 20/19 A3001 RMK A01 T01980192  RH  096%=      5-min Rain = 0
KMC5 060937Z 13009KT 20/19 A3001 RMK A01 T01980192  RH  097%=      5-min Rain = 0
KMC5 060938Z 12010KT 20/19 A3001 RMK A01 T01980192  RH  097%=      5-min Rain = 0
KMC5 060939Z 12010KT 20/19 A3001 RMK A01 T01980192  RH  097%=      5-min Rain = 0
KMC5 060940Z 12011KT 20/19 A3001 RMK A01 T01980192  RH  097%=      5-min Rain = 0
KMC5 060941Z 12009KT 20/19 A3001 RMK A01 T01980192  RH  097%=      5-min Rain = 0
KMC5 060942Z 12012KT 20/19 A3002 RMK A01 T01980193  RH  097%=      5-min Rain = 0
KMC5 060943Z 12010KT 20/19 A3002 RMK A01 T01980193  RH  097%=      5-min Rain = 0
KMC5 060944Z 12010KT 20/19 A3002 RMK A01 T01980193  RH  097%=      5-min Rain = 0
KMC5 060945Z 11009KT 20/19 A3002 RMK A01 T01980193  RH  097%=      5-min Rain = 0
KMC5 060946Z 12009KT 20/19 A3002 RMK A01 T01990194  RH  097%=      5-min Rain = 0
KMC5 060947Z 12011KT 20/19 A3001 RMK A01 T01990193  RH  097%=      5-min Rain = 0
KMC5 060948Z 12010KT 20/19 A3001 RMK A01 T01980193  RH  097%=      5-min Rain = 0
KMC5 060949Z 12010KT 20/19 A3001 RMK A01 T01990194  RH  097%=      5-min Rain = 0
KMC5 060950Z 12011KT 20/19 A3001 RMK A01 T01990194  RH  097%=      5-min Rain = 0
KMC5 060951Z 12012KT 20/19 A3001 RMK A01 T01990194  RH  097%=      5-min Rain = 0
KMC5 060952Z 12011KT 20/19 A3001 RMK A01 T01990194  RH  097%=      5-min Rain = 0
KMC5 060953Z 12011KT 20/19 A3001 RMK A01 T01990194  RH  097%=      5-min Rain = 0
KMC5 060954Z 12011KT 20/20 A3001 RMK A01 T02000195  RH  097%=      5-min Rain = 0
KMC5 060955Z 12010KT 20/19 A3001 RMK A01 T01990194  RH  097%=      5-min Rain = 0
KMC5 060956Z 13010KT 20/19 A3001 RMK A01 T01990194  RH  097%=      5-min Rain = 0
KMC5 060957Z 12011KT 20/20 A3001 RMK A01 T02000195  RH  097%=      5-min Rain = 0
KMC5 060958Z 13011KT 20/20 A3001 RMK A01 T02000195  RH  097%=      5-min Rain = 0
KMC5 060959Z 13013KT 20/20 A3001 RMK A01 T02000195  RH  097%=      5-min Rain = 0
KMC5 061000Z 13011KT 20/20 A3001 RMK A01 T02000195  RH  097%=      5-min Rain = 0
KMC5 061001Z 13011KT 20/20 A3001 RMK A01 T02000196  RH  097%=      5-min Rain = 0
KMC5 061002Z 12010KT 20/20 A3001 RMK A01 T02010196  RH  097%=      5-min Rain = 0
KMC5 061003Z 12011KT 20/20 A3001 RMK A01 T02000196  RH  097%=      5-min Rain = 0
KMC5 061004Z 13011KT 20/20 A3001 RMK A01 T02000196  RH  097%=      5-min Rain = 0
KMC5 061005Z 13012KT 20/20 A3001 RMK A01 T02010196  RH  097%=      5-min Rain = 0
KMC5 061006Z 13011KT 20/20 A3001 RMK A01 T02010196  RH  097%=      5-min Rain = 0
KMC5 061007Z 13013KT 20/20 A3001 RMK A01 T02010196  RH  097%=      5-min Rain = 0
KMC5 061008Z 13013KT 20/20 A3001 RMK A01 T02010196  RH  097%=      5-min Rain = 0
KMC5 061009Z 13011KT 20/20 A3001 RMK A01 T02010196  RH  097%=      5-min Rain = 0
KMC5 061010Z 13011KT 20/20 A3001 RMK A01 T02010196  RH  097%=      5-min Rain = 0
KMC5 061011Z 13013KT 20/20 A3001 RMK A01 T02010196  RH  097%=      5-min Rain = 0
KMC5 061012Z 12012KT 20/20 A3001 RMK A01 T02010196  RH  097%=      5-min Rain = 0
KMC5 061013Z 13012KT 20/20 A3001 RMK A01 T02010196  RH  097%=      5-min Rain = 0
KMC5 061014Z 13013KT 20/20 A30 RMK A01 T02010196  RH  097%=      5-min Rain = 0
KMC5 061015Z 12013KT 20/20 A30 RMK A01 T02010196  RH  097%=      5-min Rain = 0
KMC5 061016Z 12014KT 20/20 A30 RMK A01 T02010196  RH  097%=      5-min Rain = 0
KMC5 061017Z 13013KT 20/20 A30 RMK A01 T02010196  RH  097%=      5-min Rain = 0
KMC5 061018Z 13013KT 20/20 A30 RMK A01 T02010196  RH  097%=      5-min Rain = 0
KMC5 061019Z 13012KT 20/20 A30 RMK A01 T02010196  RH  097%=      5-min Rain = 0
KMC5 061020Z 13014KT 20/20 A30 RMK A01 T02010196  RH  097%=      5-min Rain = 0
KMC5 061021Z 13013KT 20/20 A30 RMK A01 T02010196  RH  097%=      5-min Rain = 0
KMC5 061022Z 14014KT 20/20 A30 RMK A01 T02010196  RH  097%=      5-min Rain = 0
KMC5 061023Z 14012KT 20/20 A30 RMK A01 T02010196  RH  097%=      5-min Rain = 0
KMC5 061024Z 15013KT 20/20 A30 RMK A01 T02010196  RH  097%=      5-min Rain = 0
KMC5 061025Z 15014KT 20/20 A30 RMK A01 T02010196  RH  097%=      5-min Rain = 0
KMC5 061026Z 14012KT 20/20 A30 RMK A01 T02010196  RH  097%=      5-min Rain = 0
KMC5 061027Z 15013KT 20/20 A30 RMK A01 T02010196  RH  097%=      5-min Rain = 0
KMC5 061028Z 15014KT 20/20 A30 RMK A01 T02010197  RH  097%=      5-min Rain = 0
KMC5 061029Z 15010KT 20/20 A30 RMK A01 T02010196  RH  097%=      5-min Rain = 0
KMC5 061030Z 15011KT 20/20 A3001 RMK A01 T02010197  RH  097%=      5-min Rain = 0
KMC5 061031Z 14009KT 20/20 A3001 RMK A01 T02010197  RH  097%=      5-min Rain = 0
KMC5 061032Z 14013G18KT 20/20 A3001 RMK A01 T02010197  RH  097%=      5-min Rain = 0
KMC5 061033Z 15013KT 20/20 A3001 RMK A01 T02010196  RH  097%=      5-min Rain = 0
KMC5 061034Z 14012KT 20/20 A3001 RMK A01 T02010197  RH  097%=      5-min Rain = 0
KMC5 061035Z 15010KT 20/20 A30 RMK A01 T02010197  RH  097%=      5-min Rain = 0
KMC5 061036Z 14011KT 20/20 A30 RMK A01 T02010197  RH  097%=      5-min Rain = 0
KMC5 061037Z 15011KT 20/20 A30 RMK A01 T02010197  RH  097%=      5-min Rain = 0
KMC5 061038Z 15010KT 20/20 A30 RMK A01 T02010197  RH  097%=      5-min Rain = 0
KMC5 061039Z 15011KT 20/20 A30 RMK A01 T02010197  RH  097%=      5-min Rain = 0
KMC5 061040Z 15014KT 20/20 A30 RMK A01 T02010197  RH  097%=      5-min Rain = 0
KMC5 061041Z 14013KT 20/20 A30 RMK A01 T02010197  RH  097%=      5-min Rain = 0
KMC5 061042Z 15015KT 20/20 A30 RMK A01 T02010197  RH  097%=      5-min Rain = 0
KMC5 061043Z 15012KT 20/20 A30 RMK A01 T02020197  RH  097%=      5-min Rain = 0
KMC5 061044Z 15010KT 20/20 A3001 RMK A01 T02020197  RH  097%=      5-min Rain = 0
KMC5 061045Z 15012KT 20/20 A3001 RMK A01 T02020197  RH  097%=      5-min Rain = 0
KMC5 061046Z 14012KT 20/20 A3001 RMK A01 T02020197  RH  097%=      5-min Rain = 0
KMC5 061047Z 15011KT 20/20 A3001 RMK A01 T02020197  RH  097%=      5-min Rain = 0
KMC5 061048Z 15012KT 20/20 A3001 RMK A01 T02020197  RH  097%=      5-min Rain = 0
KMC5 061049Z 14010KT 20/20 A3001 RMK A01 T02020197  RH  097%=      5-min Rain = 0
KMC5 061050Z 15010KT 20/20 A3001 RMK A01 T02020197  RH  097%=      5-min Rain = 0
KMC5 061051Z 14011KT 20/20 A3001 RMK A01 T02020197  RH  097%=      5-min Rain = 0
KMC5 061052Z 15011KT 20/20 A3001 RMK A01 T02020197  RH  097%=      5-min Rain = 0
KMC5 061053Z 14009KT 20/20 A3001 RMK A01 T02020197  RH  097%=      5-min Rain = 0
KMC5 061054Z 14011KT 20/20 A3001 RMK A01 T02020197  RH  097%=      5-min Rain = 0
KMC5 061055Z 14011KT 20/20 A3001 RMK A01 T02020197  RH  097%=      5-min Rain = 0
KMC5 061056Z 14008KT 20/20 A3001 RMK A01 T02020197  RH  097%=      5-min Rain = 0
KMC5 061057Z 13009KT 20/20 A3001 RMK A01 T02020197  RH  097%=      5-min Rain = 0
KMC5 061058Z 14010KT 20/20 A3001 RMK A01 T02020197  RH  097%=      5-min Rain = 0
KMC5 061059Z 14010KT 20/20 A3001 RMK A01 T02020197  RH  097%=      5-min Rain = 0
KMC5 061100Z 13010KT 20/20 A3001 RMK A01 T02020197  RH  097%=      5-min Rain = 0
KMC5 061101Z 13011KT 20/20 A3001 RMK A01 T02030197  RH  096%=      5-min Rain = 0
KMC5 061102Z 14010KT 20/20 A3001 RMK A01 T02030197  RH  096%=      5-min Rain = 0
KMC5 061103Z 14010KT 20/20 A3001 RMK A01 T02030197  RH  096%=      5-min Rain = 0
KMC5 061104Z 13010KT 20/20 A3001 RMK A01 T02030197  RH  096%=      5-min Rain = 0
KMC5 061105Z 13010KT 20/20 A3001 RMK A01 T02030197  RH  096%=      5-min Rain = 0
KMC5 061106Z 14011KT 20/20 A3001 RMK A01 T02030197  RH  096%=      5-min Rain = 0
KMC5 061107Z 13009KT 20/20 A3001 RMK A01 T02030197  RH  096%=      5-min Rain = 0
KMC5 061108Z 14010KT 20/20 A3001 RMK A01 T02030197  RH  096%=      5-min Rain = 0
KMC5 061109Z 14010KT 20/20 A3001 RMK A01 T02030197  RH  096%=      5-min Rain = 0
KMC5 061110Z 14012KT 20/20 A3001 RMK A01 T02030197  RH  096%=      5-min Rain = 0
KMC5 061111Z 14009KT 20/20 A3001 RMK A01 T02030197  RH  096%=      5-min Rain = 0
KMC5 061112Z 14011KT 20/20 A3001 RMK A01 T02030197  RH  096%=      5-min Rain = 0
KMC5 061113Z 14012KT 20/20 A3001 RMK A01 T02020197  RH  096%=      5-min Rain = 0
KMC5 061114Z 13012KT 20/20 A3001 RMK A01 T02030197  RH  096%=      5-min Rain = 0
KMC5 061115Z 14012KT 20/20 A3001 RMK A01 T02030197  RH  096%=      5-min Rain = 0
KMC5 061116Z 14011KT 20/20 A3001 RMK A01 T02030197  RH  096%=      5-min Rain = 0
KMC5 061117Z 14011KT 20/20 A3001 RMK A01 T02030197  RH  096%=      5-min Rain = 0
KMC5 061118Z 14011KT 20/20 A3001 RMK A01 T02030197  RH  096%=      5-min Rain = 0
KMC5 061119Z 15010KT 20/20 A3001 RMK A01 T02030197  RH  096%=      5-min Rain = 0
KMC5 061120Z 15010KT 20/20 A3001 RMK A01 T02030197  RH  096%=      5-min Rain = 0
KMC5 061121Z 14011KT 20/20 A3001 RMK A01 T02030197  RH  096%=      5-min Rain = 0
KMC5 061122Z 15009KT 20/20 A3001 RMK A01 T02030197  RH  096%=      5-min Rain = 0
KMC5 061123Z 15009KT 20/20 A3001 RMK A01 T02030197  RH  096%=      5-min Rain = 0
KMC5 061124Z 15011KT 20/20 A3001 RMK A01 T02030197  RH  096%=      5-min Rain = 0
KMC5 061125Z 15010KT 20/20 A3001 RMK A01 T02030197  RH  096%=      5-min Rain = 0
KMC5 061126Z 15011KT 20/20 A3001 RMK A01 T02030197  RH  096%=      5-min Rain = 0
KMC5 061127Z 15010KT 20/20 A3001 RMK A01 T02030197  RH  096%=      5-min Rain = 0
KMC5 061128Z 15010KT 20/20 A3001 RMK A01 T02030197  RH  096%=      5-min Rain = 0
KMC5 061129Z 15012KT 20/20 A3001 RMK A01 T02030197  RH  096%=      5-min Rain = 0
KMC5 061130Z 15011KT 20/20 A3001 RMK A01 T02030197  RH  096%=      5-min Rain = 0
KMC5 061131Z 15012KT 20/20 A3001 RMK A01 T02030197  RH  096%=      5-min Rain = 0
KMC5 061132Z 15011KT 20/20 A3001 RMK A01 T02030196  RH  096%=      5-min Rain = 0
KMC5 061133Z 15012KT 20/20 A3001 RMK A01 T02030196  RH  096%=      5-min Rain = 0
KMC5 061134Z 15013KT 20/20 A3001 RMK A01 T02030196  RH  096%=      5-min Rain = 0
KMC5 061135Z 15011KT 20/20 A3001 RMK A01 T02030196  RH  096%=      5-min Rain = 0
KMC5 061136Z 15011KT 20/20 A3001 RMK A01 T02030196  RH  096%=      5-min Rain = 0
KMC5 061137Z 16011KT 20/20 A3001 RMK A01 T02030196  RH  096%=      5-min Rain = 0
KMC5 061138Z 15010KT 20/20 A3001 RMK A01 T02030196  RH  096%=      5-min Rain = 0
KMC5 061139Z 15010KT 20/20 A3002 RMK A01 T02030196  RH  096%=      5-min Rain = 0
KMC5 061140Z 16011KT 20/20 A3001 RMK A01 T02030196  RH  096%=      5-min Rain = 0
KMC5 061141Z 15008KT 20/20 A3002 RMK A01 T02030196  RH  096%=      5-min Rain = 0
KMC5 061142Z 15010KT 20/20 A3002 RMK A01 T02030197  RH  096%=      5-min Rain = 0
KMC5 061143Z 15010KT 20/20 A3001 RMK A01 T02030197  RH  096%=      5-min Rain = 0
KMC5 061144Z 15010KT 20/20 A3001 RMK A01 T02030197  RH  096%=      5-min Rain = 0
KMC5 061145Z 14012KT 20/20 A3001 RMK A01 T02030197  RH  096%=      5-min Rain = 0
KMC5 061146Z 15012KT 20/20 A3001 RMK A01 T02030196  RH  096%=      5-min Rain = 0
KMC5 061147Z 15012KT 20/20 A3001 RMK A01 T02030196  RH  096%=      5-min Rain = 0
KMC5 061148Z 14011KT 20/20 A3001 RMK A01 T02030196  RH  096%=      5-min Rain = 0
KMC5 061149Z 14012KT 20/20 A3001 RMK A01 T02030196  RH  096%=      5-min Rain = 0
KMC5 061150Z 14011KT 20/20 A3001 RMK A01 T02030196  RH  096%=      5-min Rain = 0
KMC5 061151Z 14011KT 20/20 A3001 RMK A01 T02030196  RH  096%=      5-min Rain = 0
KMC5 061152Z 15011KT 20/20 A3001 RMK A01 T02030196  RH  096%=      5-min Rain = 0
KMC5 061153Z 15010KT 20/20 A3001 RMK A01 T02040197  RH  096%=      5-min Rain = 0
KMC5 061154Z 15010KT 20/20 A3001 RMK A01 T02040197  RH  096%=      5-min Rain = 0
KMC5 061155Z 15008KT 20/20 A3001 RMK A01 T02040197  RH  096%=      5-min Rain = 0
KMC5 061156Z 15009KT 20/20 A3001 RMK A01 T02040197  RH  096%=      5-min Rain = 0
KMC5 061157Z 15011KT 20/20 A3001 RMK A01 T02040197  RH  096%=      5-min Rain = 0
KMC5 061158Z 15012KT 20/20 A3001 RMK A01 T02040197  RH  096%=      5-min Rain = 0
KMC5 061159Z 15011KT 20/20 A3001 RMK A01 T02040197  RH  096%=      5-min Rain = 0
KMC5 061200Z 15011KT 20/20 A3001 RMK A01 T02040197  RH  096%=      5-min Rain = 0
KMC5 061201Z 15010KT 20/20 A3001 RMK A01 T02040197  RH  096%=      5-min Rain = 0
KMC5 061202Z 15009KT 20/20 A3001 RMK A01 T02040197  RH  096%=      5-min Rain = 0
KMC5 061203Z 15011KT 20/20 A3001 RMK A01 T02040197  RH  096%=      5-min Rain = 0
KMC5 061204Z 15012KT 20/20 A3001 RMK A01 T02040197  RH  096%=      5-min Rain = 0
KMC5 061205Z 15012KT 20/20 A3001 RMK A01 T02040197  RH  096%=      5-min Rain = 0
KMC5 061206Z 15012KT 20/20 A3001 RMK A01 T02040197  RH  096%=      5-min Rain = 0
KMC5 061207Z 15011KT 20/20 A3001 RMK A01 T02030196  RH  096%=      5-min Rain = 0
KMC5 061208Z 16010KT 20/20 A3001 RMK A01 T02030196  RH  096%=      5-min Rain = 0
KMC5 061209Z 16013KT 20/20 A3001 RMK A01 T02030196  RH  096%=      5-min Rain = 0
KMC5 061210Z 16011KT 20/20 A3001 RMK A01 T02030196  RH  096%=      5-min Rain = 0
KMC5 061211Z 16012KT 20/20 A3001 RMK A01 T02030196  RH  095%=      5-min Rain = 0
KMC5 061212Z 15010KT 20/20 A3001 RMK A01 T02030196  RH  095%=      5-min Rain = 0
KMC5 061213Z 15010KT 20/20 A3001 RMK A01 T02040196  RH  095%=      5-min Rain = 0
KMC5 061214Z 16011KT 20/20 A3001 RMK A01 T02040196  RH  095%=      5-min Rain = 0
KMC5 061215Z 16010KT 20/20 A3001 RMK A01 T02040197  RH  095%=      5-min Rain = 0
KMC5 061216Z 16010KT 20/20 A3001 RMK A01 T02040196  RH  095%=      5-min Rain = 0
KMC5 061217Z 17010KT 20/20 A3001 RMK A01 T02040196  RH  095%=      5-min Rain = 0
KMC5 061218Z 16011KT 20/20 A3001 RMK A01 T02040196  RH  095%=      5-min Rain = 0
KMC5 061219Z 16009KT 20/20 A3001 RMK A01 T02040196  RH  095%=      5-min Rain = 0
KMC5 061220Z 16010KT 20/20 A3001 RMK A01 T02040196  RH  095%=      5-min Rain = 0
KMC5 061221Z 17009KT 20/20 A3001 RMK A01 T02040196  RH  095%=      5-min Rain = 0
KMC5 061222Z 17010KT 20/20 A3001 RMK A01 T02040196  RH  095%=      5-min Rain = 0
KMC5 061223Z 16010KT 20/20 A3001 RMK A01 T02040196  RH  095%=      5-min Rain = 0
KMC5 061224Z 16008KT 20/20 A3001 RMK A01 T02040196  RH  095%=      5-min Rain = 0
KMC5 061225Z 16008KT 20/20 A3001 RMK A01 T02040196  RH  095%=      5-min Rain = 0
KMC5 061226Z 16009KT 20/20 A3001 RMK A01 T02040196  RH  095%=      5-min Rain = 0
KMC5 061227Z 16009KT 20/20 A3001 RMK A01 T02040196  RH  095%=      5-min Rain = 0
KMC5 061228Z 17010KT 20/20 A3001 RMK A01 T02040196  RH  095%=      5-min Rain = 0
KMC5 061229Z 17010KT 20/20 A3001 RMK A01 T02040196  RH  095%=      5-min Rain = 0
KMC5 061230Z 17010KT 20/20 A3001 RMK A01 T02040196  RH  095%=      5-min Rain = 0
KMC5 061231Z 16007KT 20/20 A3001 RMK A01 T02040196  RH  095%=      5-min Rain = 0
KMC5 061232Z 16009KT 20/20 A3001 RMK A01 T02040196  RH  095%=      5-min Rain = 0
KMC5 061233Z 15011KT 20/20 A3001 RMK A01 T02040196  RH  095%=      5-min Rain = 0
KMC5 061234Z 16009KT 20/20 A3001 RMK A01 T02040196  RH  095%=      5-min Rain = 0
KMC5 061235Z 16009KT 20/20 A3001 RMK A01 T02040196  RH  095%=      5-min Rain = 0
KMC5 061236Z 16009KT 21/20 A3001 RMK A01 T02050197  RH  095%=      5-min Rain = 0
KMC5 061237Z 16007KT 21/20 A3001 RMK A01 T02050197  RH  095%=      5-min Rain = 0
KMC5 061238Z 16010KT 20/20 A3001 RMK A01 T02040197  RH  095%=      5-min Rain = 0
KMC5 061239Z 16011KT 20/20 A3001 RMK A01 T02040197  RH  095%=      5-min Rain = 0
KMC5 061240Z 17010KT 20/20 A3001 RMK A01 T02040197  RH  095%=      5-min Rain = 0
KMC5 061241Z 16008KT 20/20 A3001 RMK A01 T02040196  RH  095%=      5-min Rain = 0
KMC5 061242Z 16011KT 20/20 A3001 RMK A01 T02040197  RH  095%=      5-min Rain = 0
KMC5 061243Z 16010KT 21/20 A3001 RMK A01 T02050197  RH  095%=      5-min Rain = 0
KMC5 061244Z 16010KT 20/20 A3001 RMK A01 T02040197  RH  095%=      5-min Rain = 0
KMC5 061245Z 17009KT 21/20 A3001 RMK A01 T02050197  RH  095%=      5-min Rain = 0
KMC5 061246Z 16009KT 21/20 A3001 RMK A01 T02050197  RH  095%=      5-min Rain = 0
KMC5 061247Z 17009KT 20/20 A3001 RMK A01 T02040197  RH  095%=      5-min Rain = 0
KMC5 061248Z 16010KT 21/20 A3001 RMK A01 T02050197  RH  095%=      5-min Rain = 0
KMC5 061249Z 17011KT 20/20 A3001 RMK A01 T02040197  RH  095%=      5-min Rain = 0
KMC5 061250Z 17011KT 21/20 A3001 RMK A01 T02050197  RH  095%=      5-min Rain = 0
KMC5 061251Z 17010KT 21/20 A3001 RMK A01 T02050197  RH  095%=      5-min Rain = 0
KMC5 061252Z 16009KT 20/20 A3001 RMK A01 T02040196  RH  095%=      5-min Rain = 0
KMC5 061253Z 16009KT 21/20 A3001 RMK A01 T02050197  RH  095%=      5-min Rain = 0
KMC5 061254Z 16009KT 21/20 A3001 RMK A01 T02050197  RH  095%=      5-min Rain = 0
KMC5 061255Z 17009KT 21/20 A3001 RMK A01 T02050197  RH  095%=      5-min Rain = 0
KMC5 061256Z 17010KT 21/20 A3001 RMK A01 T02050197  RH  095%=      5-min Rain = 0
KMC5 061257Z 17010KT 21/20 A3001 RMK A01 T02060198  RH  095%=      5-min Rain = 0
KMC5 061258Z 16009KT 21/20 A3001 RMK A01 T02060197  RH  095%=      5-min Rain = 0
KMC5 061259Z 17009KT 21/20 A3001 RMK A01 T02060198  RH  095%=      5-min Rain = 0
KMC5 061300Z 16009KT 21/20 A3001 RMK A01 T02060198  RH  095%=      5-min Rain = 0
KMC5 061301Z 17009KT 21/20 A3001 RMK A01 T02070198  RH  095%=      5-min Rain = 0
KMC5 061302Z 16010KT 21/20 A3001 RMK A01 T02070198  RH  095%=      5-min Rain = 0
KMC5 061303Z 16009KT 21/20 A3001 RMK A01 T02070198  RH  094%=      5-min Rain = 0
KMC5 061304Z 16008KT 21/20 A3001 RMK A01 T02070198  RH  094%=      5-min Rain = 0
KMC5 061305Z 18010KT 21/20 A3001 RMK A01 T02070197  RH  094%=      5-min Rain = 0
KMC5 061306Z 17009KT 21/20 A3001 RMK A01 T02070198  RH  094%=      5-min Rain = 0
KMC5 061307Z 17009KT 21/20 A3001 RMK A01 T02080198  RH  094%=      5-min Rain = 0
KMC5 061308Z 17009KT 21/20 A3001 RMK A01 T02080198  RH  094%=      5-min Rain = 0
KMC5 061309Z 16009KT 21/20 A3001 RMK A01 T02090198  RH  094%=      5-min Rain = 0
KMC5 061310Z 16009KT 21/20 A3001 RMK A01 T02090198  RH  094%=      5-min Rain = 0
KMC5 061311Z 18007KT 21/20 A3001 RMK A01 T02090199  RH  093%=      5-min Rain = 0
KMC5 061312Z 17009KT 21/20 A3001 RMK A01 T02090198  RH  093%=      5-min Rain = 0
KMC5 061313Z 17009KT 21/20 A3001 RMK A01 T02090198  RH  093%=      5-min Rain = 0
KMC5 061314Z 16010KT 21/20 A3001 RMK A01 T02090198  RH  093%=      5-min Rain = 0
KMC5 061315Z 16009KT 21/20 A3001 RMK A01 T02100198  RH  093%=      5-min Rain = 0
KMC5 061316Z 16010KT 21/20 A3001 RMK A01 T02090198  RH  093%=      5-min Rain = 0
KMC5 061317Z 16010KT 21/20 A3001 RMK A01 T02090198  RH  093%=      5-min Rain = 0
KMC5 061318Z 16010KT 21/20 A3001 RMK A01 T02100198  RH  093%=      5-min Rain = 0
KMC5 061319Z 16011KT 21/20 A3001 RMK A01 T02100198  RH  093%=      5-min Rain = 0
KMC5 061320Z 16010KT 21/20 A3001 RMK A01 T02100197  RH  093%=      5-min Rain = 0
KMC5 061321Z 17009KT 21/20 A3001 RMK A01 T02100197  RH  093%=      5-min Rain = 0
KMC5 061322Z 17008KT 21/20 A3001 RMK A01 T02100198  RH  093%=      5-min Rain = 0
KMC5 061323Z 17009KT 21/20 A3001 RMK A01 T02100199  RH  093%=      5-min Rain = 0
KMC5 061324Z 17010KT 21/20 A3001 RMK A01 T02110198  RH  093%=      5-min Rain = 0
KMC5 061325Z 16010KT 21/20 A3001 RMK A01 T02110198  RH  092%=      5-min Rain = 0
KMC5 061326Z 16010KT 21/20 A3001 RMK A01 T02110198  RH  092%=      5-min Rain = 0
KMC5 061327Z 16010KT 21/20 A3001 RMK A01 T02110198  RH  092%=      5-min Rain = 0
KMC5 061328Z 16011KT 21/20 A3001 RMK A01 T02110198  RH  092%=      5-min Rain = 0
KMC5 061329Z 16011KT 21/20 A3001 RMK A01 T02110198  RH  092%=      5-min Rain = 0
KMC5 061330Z 16012KT 21/20 A3001 RMK A01 T02120198  RH  092%=      5-min Rain = 0
KMC5 061331Z 16011KT 21/20 A3001 RMK A01 T02120198  RH  092%=      5-min Rain = 0
KMC5 061332Z 17009KT 21/20 A3001 RMK A01 T02120198  RH  092%=      5-min Rain = 0
KMC5 061333Z 16009KT 21/20 A3001 RMK A01 T02120198  RH  092%=      5-min Rain = 0
KMC5 061334Z 16009KT 21/20 A3001 RMK A01 T02130198  RH  092%=      5-min Rain = 0
KMC5 061335Z 16012KT 21/20 A3001 RMK A01 T02130197  RH  091%=      5-min Rain = 0
KMC5 061336Z 17011KT 21/20 A3001 RMK A01 T02130198  RH  091%=      5-min Rain = 0
KMC5 061337Z 17010KT 21/20 A3001 RMK A01 T02130198  RH  091%=      5-min Rain = 0
KMC5 061338Z 17010KT 21/20 A3001 RMK A01 T02130198  RH  091%=      5-min Rain = 0
KMC5 061339Z 17009KT 21/20 A3001 RMK A01 T02140198  RH  091%=      5-min Rain = 0
KMC5 061340Z 17010KT 21/20 A3001 RMK A01 T02140198  RH  091%=      5-min Rain = 0
KMC5 061341Z 16010G15KT 22/20 A3001 RMK A01 T02150199  RH  091%=      5-min Rain = 0
KMC5 061342Z 17012KT 22/20 A3001 RMK A01 T02150198  RH  090%=      5-min Rain = 0
KMC5 061343Z 17010KT 22/20 A3001 RMK A01 T02150196  RH  089%=      5-min Rain = 0
KMC5 061344Z 16010KT 22/20 A3001 RMK A01 T02150197  RH  090%=      5-min Rain = 0
KMC5 061345Z 16008KT 22/20 A3001 RMK A01 T02150198  RH  090%=      5-min Rain = 0
KMC5 061346Z 17009KT 22/20 A3001 RMK A01 T02150197  RH  090%=      5-min Rain = 0
KMC5 061347Z 16009KT 22/20 A3001 RMK A01 T02150197  RH  090%=      5-min Rain = 0
KMC5 061348Z 17010KT 22/20 A3001 RMK A01 T02150197  RH  089%=      5-min Rain = 0
KMC5 061349Z 16011KT 22/20 A3001 RMK A01 T02160197  RH  089%=      5-min Rain = 0
KMC5 061350Z 16010KT 22/20 A3001 RMK A01 T02150197  RH  089%=      5-min Rain = 0
KMC5 061351Z 17009KT 22/20 A3001 RMK A01 T02150197  RH  089%=      5-min Rain = 0
KMC5 061352Z 17008KT 22/20 A3001 RMK A01 T02150197  RH  090%=      5-min Rain = 0
KMC5 061353Z 18009KT 22/20 A3001 RMK A01 T02150198  RH  090%=      5-min Rain = 0
KMC5 061354Z 17009KT 22/20 A3001 RMK A01 T02160198  RH  090%=      5-min Rain = 0
KMC5 061355Z 17009KT 22/20 A3001 RMK A01 T02160198  RH  089%=      5-min Rain = 0
KMC5 061356Z 17010KT 22/20 A3001 RMK A01 T02160198  RH  089%=      5-min Rain = 0
KMC5 061357Z 17008KT 22/20 A3001 RMK A01 T02160197  RH  089%=      5-min Rain = 0
KMC5 061358Z 16008KT 22/20 A3001 RMK A01 T02160198  RH  089%=      5-min Rain = 0
KMC5 061359Z 17008KT 22/20 A3001 RMK A01 T02160198  RH  089%=      5-min Rain = 0
KMC5 061400Z 17007KT 22/20 A3001 RMK A01 T02160199  RH  090%=      5-min Rain = 0
KMC5 061401Z 17008KT 22/20 A3001 RMK A01 T02170198  RH  089%=      5-min Rain = 0
KMC5 061402Z 18009KT 22/20 A3001 RMK A01 T02170198  RH  089%=      5-min Rain = 0
KMC5 061403Z 19009KT 22/20 A3001 RMK A01 T02170198  RH  089%=      5-min Rain = 0
KMC5 061404Z 17007KT 22/20 A3001 RMK A01 T02170198  RH  089%=      5-min Rain = 0
KMC5 061405Z 17008KT 22/20 A3001 RMK A01 T02170198  RH  089%=      5-min Rain = 0
KMC5 061406Z 18008KT 22/20 A3001 RMK A01 T02170198  RH  089%=      5-min Rain = 0
KMC5 061407Z 19009KT 22/20 A3001 RMK A01 T02170198  RH  089%=      5-min Rain = 0
KMC5 061408Z 19009KT 22/20 A3001 RMK A01 T02180198  RH  089%=      5-min Rain = 0
KMC5 061409Z 18011KT 22/20 A3001 RMK A01 T02180198  RH  088%=      5-min Rain = 0
KMC5 061410Z 19012KT 22/20 A3001 RMK A01 T02180197  RH  088%=      5-min Rain = 0
KMC5 061411Z 19011KT 22/20 A3002 RMK A01 T02180197  RH  088%=      5-min Rain = 0
KMC5 061412Z 18011KT 22/20 A3002 RMK A01 T02180198  RH  088%=      5-min Rain = 0
KMC5 061413Z 18010KT 22/20 A3002 RMK A01 T02190198  RH  088%=      5-min Rain = 0
KMC5 061414Z 18010KT 22/20 A3002 RMK A01 T02190198  RH  088%=      5-min Rain = 0
KMC5 061415Z 17010KT 22/20 A3002 RMK A01 T02190198  RH  088%=      5-min Rain = 0
KMC5 061416Z 18010KT 22/20 A3001 RMK A01 T02200198  RH  087%=      5-min Rain = 0
KMC5 061417Z 18010KT 22/20 A3001 RMK A01 T02200198  RH  087%=      5-min Rain = 0
KMC5 061418Z 18008KT 22/20 A3002 RMK A01 T02190198  RH  088%=      5-min Rain = 0
KMC5 061419Z 18011KT 22/20 A3001 RMK A01 T02200198  RH  088%=      5-min Rain = 0
KMC5 061420Z 18009KT 22/20 A3001 RMK A01 T02200199  RH  088%=      5-min Rain = 0
KMC5 061421Z 16009KT 22/20 A3001 RMK A01 T02200198  RH  088%=      5-min Rain = 0
KMC5 061422Z 17010KT 22/20 A3001 RMK A01 T02200198  RH  087%=      5-min Rain = 0
KMC5 061423Z 17010KT 22/20 A3001 RMK A01 T02200198  RH  087%=      5-min Rain = 0
KMC5 061424Z 17011KT 22/20 A3001 RMK A01 T02200198  RH  087%=      5-min Rain = 0
KMC5 061425Z 16011KT 22/20 A3001 RMK A01 T02200197  RH  087%=      5-min Rain = 0
KMC5 061426Z 17008KT 22/20 A3001 RMK A01 T02200198  RH  087%=      5-min Rain = 0
KMC5 061427Z 17011KT 22/20 A3001 RMK A01 T02210199  RH  087%=      5-min Rain = 0
KMC5 061428Z 17011KT 22/20 A3001 RMK A01 T02210198  RH  087%=      5-min Rain = 0
KMC5 061429Z 18009KT 22/20 A3001 RMK A01 T02210199  RH  087%=      5-min Rain = 0
KMC5 061430Z 17008KT 22/20 A3001 RMK A01 T02220200  RH  087%=      5-min Rain = 0
KMC5 061431Z 17010KT 22/20 A3001 RMK A01 T02230199  RH  086%=      5-min Rain = 0
KMC5 061432Z 16008KT 22/20 A3001 RMK A01 T02240199  RH  086%=      5-min Rain = 0
KMC5 061433Z 16007KT 23/20 A3001 RMK A01 T02250201  RH  086%=      5-min Rain = 0
KMC5 061434Z 16010KT 23/20 A3001 RMK A01 T02260200  RH  085%=      5-min Rain = 0
KMC5 061435Z 17008KT 23/20 A3001 RMK A01 T02260199  RH  085%=      5-min Rain = 0
KMC5 061436Z 17009KT 23/20 A3001 RMK A01 T02260200  RH  085%=      5-min Rain = 0
KMC5 061437Z 17010KT 23/20 A3001 RMK A01 T02270199  RH  084%=      5-min Rain = 0
KMC5 061438Z 18009KT 23/20 A3001 RMK A01 T02270197  RH  083%=      5-min Rain = 0
KMC5 061439Z 16008KT 23/20 A3001 RMK A01 T02270199  RH  084%=      5-min Rain = 0
KMC5 061440Z 17009KT 23/20 A3001 RMK A01 T02280198  RH  083%=      5-min Rain = 0
KMC5 061441Z 18011KT 23/20 A3001 RMK A01 T02280196  RH  082%=      5-min Rain = 0
KMC5 061442Z 17010KT 23/20 A3001 RMK A01 T02290197  RH  082%=      5-min Rain = 0
KMC5 061443Z 18009KT 23/20 A3001 RMK A01 T02300197  RH  082%=      5-min Rain = 0
KMC5 061444Z 17010KT 23/20 A3001 RMK A01 T02300196  RH  081%=      5-min Rain = 0
KMC5 061445Z 18009KT 23/20 A3001 RMK A01 T02310196  RH  081%=      5-min Rain = 0
KMC5 061446Z 18008KT 23/20 A3001 RMK A01 T02310197  RH  081%=      5-min Rain = 0
KMC5 061447Z 18010KT 23/20 A3001 RMK A01 T02300196  RH  081%=      5-min Rain = 0
KMC5 061448Z 16010KT 23/20 A3001 RMK A01 T02310196  RH  081%=      5-min Rain = 0
KMC5 061449Z 16009KT 23/19 A3001 RMK A01 T02320193  RH  079%=      5-min Rain = 0
KMC5 061450Z 17011KT 23/19 A3001 RMK A01 T02330194  RH  078%=      5-min Rain = 0
KMC5 061451Z 20010KT 23/19 A3001 RMK A01 T02340192  RH  077%=      5-min Rain = 0
KMC5 061452Z 19010KT 24/19 A3001 RMK A01 T02360190  RH  075%=      5-min Rain = 0
KMC5 061453Z 18010KT 24/19 A3001 RMK A01 T02370191  RH  075%=      5-min Rain = 0
KMC5 061454Z 19009KT 24/19 A3001 RMK A01 T02370190  RH  075%=      5-min Rain = 0
KMC5 061455Z 18011KT 24/19 A3001 RMK A01 T02380189  RH  074%=      5-min Rain = 0
KMC5 061456Z 19012KT 24/19 A3001 RMK A01 T02390189  RH  073%=      5-min Rain = 0
KMC5 061457Z 18010KT 24/19 A3001 RMK A01 T02390189  RH  073%=      5-min Rain = 0
KMC5 061458Z 19012KT 24/19 A3001 RMK A01 T02400187  RH  073%=      5-min Rain = 0
KMC5 061459Z 18010KT 24/19 A3001 RMK A01 T02410187  RH  072%=      5-min Rain = 0
KMC5 061500Z 18008KT 24/19 A3001 RMK A01 T02410189  RH  073%=      5-min Rain = 0
KMC5 061501Z 17011KT 24/19 A3001 RMK A01 T02420190  RH  073%=      5-min Rain = 0
KMC5 061502Z 16011KT 24/19 A3002 RMK A01 T02420189  RH  072%=      5-min Rain = 0
KMC5 061503Z 17012KT 24/19 A3002 RMK A01 T02410190  RH  073%=      5-min Rain = 0
KMC5 061504Z 18012KT 24/19 A3002 RMK A01 T02400190  RH  073%=      5-min Rain = 0
KMC5 061505Z 18011KT 24/19 A3002 RMK A01 T02410190  RH  073%=      5-min Rain = 0
KMC5 061506Z 17009KT 24/19 A3002 RMK A01 T02410191  RH  074%=      5-min Rain = 0
KMC5 061507Z 17010KT 24/19 A3002 RMK A01 T02420191  RH  073%=      5-min Rain = 0
KMC5 061508Z 17010KT 24/19 A3002 RMK A01 T02420191  RH  073%=      5-min Rain = 0
KMC5 061509Z 18009KT 24/19 A3002 RMK A01 T02410192  RH  074%=      5-min Rain = 0
KMC5 061510Z 17008KT 24/19 A3002 RMK A01 T02410191  RH  074%=      5-min Rain = 0
KMC5 061511Z 18009KT 24/19 A3002 RMK A01 T02410192  RH  074%=      5-min Rain = 0
KMC5 061512Z 18010KT 24/19 A3002 RMK A01 T02410188  RH  072%=      5-min Rain = 0
KMC5 061513Z 18010KT 24/19 A3002 RMK A01 T02410187  RH  072%=      5-min Rain = 0
KMC5 061514Z 18010KT 24/19 A3002 RMK A01 T02420187  RH  071%=      5-min Rain = 0
KMC5 061515Z 18008KT 24/19 A3002 RMK A01 T02430189  RH  072%=      5-min Rain = 0
KMC5 061516Z 17009KT 24/19 A3002 RMK A01 T02430190  RH  072%=      5-min Rain = 0
KMC5 061517Z 17009KT 24/19 A3002 RMK A01 T02430191  RH  073%=      5-min Rain = 0
KMC5 061518Z 18010KT 24/19 A3002 RMK A01 T02430190  RH  072%=      5-min Rain = 0
KMC5 061519Z 17010KT 24/19 A3002 RMK A01 T02440189  RH  072%=      5-min Rain = 0
KMC5 061520Z 19011KT 25/19 A3002 RMK A01 T02450188  RH  071%=      5-min Rain = 0
KMC5 061521Z 19012KT 25/19 A3002 RMK A01 T02450187  RH  070%=      5-min Rain = 0
KMC5 061522Z 18012KT 25/19 A3002 RMK A01 T02450187  RH  070%=      5-min Rain = 0
KMC5 061523Z 17011KT 25/19 A3002 RMK A01 T02450189  RH  071%=      5-min Rain = 0
KMC5 061524Z 18010KT 25/19 A3002 RMK A01 T02450185  RH  069%=      5-min Rain = 0
KMC5 061525Z 18009KT 24/19 A3002 RMK A01 T02440186  RH  070%=      5-min Rain = 0
KMC5 061526Z 18008KT 25/19 A3002 RMK A01 T02450188  RH  070%=      5-min Rain = 0
KMC5 061527Z 18010KT 25/19 A3002 RMK A01 T02450190  RH  071%=      5-min Rain = 0
KMC5 061528Z 18009KT 25/19 A3002 RMK A01 T02460190  RH  071%=      5-min Rain = 0
KMC5 061529Z 17007KT 25/19 A3002 RMK A01 T02460191  RH  071%=      5-min Rain = 0
KMC5 061530Z 18007KT 25/19 A3002 RMK A01 T02450192  RH  072%=      5-min Rain = 0
KMC5 061531Z 17010KT 25/19 A3002 RMK A01 T02460190  RH  071%=      5-min Rain = 0
KMC5 061532Z 18011KT 25/19 A3002 RMK A01 T02460188  RH  070%=      5-min Rain = 0
KMC5 061533Z 19010KT 25/19 A3003 RMK A01 T02450185  RH  069%=      5-min Rain = 0
KMC5 061534Z 17010KT 25/19 A3003 RMK A01 T02450186  RH  070%=      5-min Rain = 0
KMC5 061535Z 18010KT 25/19 A3003 RMK A01 T02450188  RH  071%=      5-min Rain = 0
KMC5 061536Z 18008KT 24/19 A3003 RMK A01 T02440188  RH  071%=      5-min Rain = 0
KMC5 061537Z 19007KT 24/19 A3003 RMK A01 T02440190  RH  072%=      5-min Rain = 0
KMC5 061538Z 17007KT 24/19 A3003 RMK A01 T02440191  RH  072%=      5-min Rain = 0
KMC5 061539Z 18008KT 24/19 A3003 RMK A01 T02440189  RH  071%=      5-min Rain = 0
KMC5 061540Z 19009KT 24/18 A3003 RMK A01 T02440184  RH  069%=      5-min Rain = 0
KMC5 061541Z 19010KT 24/18 A3003 RMK A01 T02440182  RH  069%=      5-min Rain = 0
KMC5 061542Z 19009KT 24/19 A3003 RMK A01 T02440185  RH  069%=      5-min Rain = 0
KMC5 061543Z 19009KT 25/18 A3003 RMK A01 T02450183  RH  068%=      5-min Rain = 0
KMC5 061544Z 18009KT 25/18 A3003 RMK A01 T02450184  RH  069%=      5-min Rain = 0
KMC5 061545Z 18010KT 25/18 A3003 RMK A01 T02450183  RH  069%=      5-min Rain = 0
KMC5 061546Z 19010KT 25/18 A3003 RMK A01 T02450184  RH  069%=      5-min Rain = 0
KMC5 061547Z 19009KT 25/18 A3003 RMK A01 T02450184  RH  069%=      5-min Rain = 0
KMC5 061548Z 18010KT 25/18 A3003 RMK A01 T02450184  RH  069%=      5-min Rain = 0
KMC5 061549Z 18009KT 24/19 A3003 RMK A01 T02440185  RH  069%=      5-min Rain = 0
KMC5 061550Z 18010KT 24/19 A3003 RMK A01 T02440186  RH  070%=      5-min Rain = 0
KMC5 061551Z 18009KT 24/19 A3003 RMK A01 T02440186  RH  070%=      5-min Rain = 0
KMC5 061552Z 19009KT 24/19 A3003 RMK A01 T02440187  RH  070%=      5-min Rain = 0
KMC5 061553Z 19009KT 24/19 A3003 RMK A01 T02440186  RH  070%=      5-min Rain = 0
KMC5 061554Z 18010KT 24/19 A3003 RMK A01 T02440185  RH  070%=      5-min Rain = 0
KMC5 061555Z 18010KT 24/19 A3003 RMK A01 T02440185  RH  070%=      5-min Rain = 0
KMC5 061556Z 18008KT 24/19 A3003 RMK A01 T02440186  RH  070%=      5-min Rain = 0
KMC5 061557Z 19008KT 25/19 A3003 RMK A01 T02450187  RH  070%=      5-min Rain = 0
KMC5 061558Z 17008KT 25/19 A3003 RMK A01 T02450187  RH  070%=      5-min Rain = 0
KMC5 061559Z 18010KT 25/19 A3003 RMK A01 T02460186  RH  069%=      5-min Rain = 0
KMC5 061600Z 18009KT 25/19 A3003 RMK A01 T02460187  RH  070%=      5-min Rain = 0
KMC5 061601Z 18009KT 25/19 A3003 RMK A01 T02460185  RH  069%=      5-min Rain = 0
KMC5 061602Z 18010KT 25/19 A3003 RMK A01 T02470186  RH  069%=      5-min Rain = 0
KMC5 061603Z 19010KT 25/19 A3003 RMK A01 T02460185  RH  069%=      5-min Rain = 0
KMC5 061604Z 19010KT 25/19 A3003 RMK A01 T02460185  RH  069%=      5-min Rain = 0
KMC5 061605Z 18008KT 25/19 A3003 RMK A01 T02460187  RH  069%=      5-min Rain = 0
KMC5 061606Z 17007KT 25/19 A3003 RMK A01 T02470189  RH  070%=      5-min Rain = 0
KMC5 061607Z 16008KT 25/19 A3003 RMK A01 T02480189  RH  070%=      5-min Rain = 0
KMC5 061608Z 16010KT 25/19 A3003 RMK A01 T02480189  RH  069%=      5-min Rain = 0
KMC5 061609Z 16009KT 25/19 A3003 RMK A01 T02480187  RH  069%=      5-min Rain = 0
KMC5 061610Z 15007KT 25/19 A3004 RMK A01 T02470190  RH  070%=      5-min Rain = 0
KMC5 061611Z 17008KT 25/19 A3004 RMK A01 T02470193  RH  072%=      5-min Rain = 0
KMC5 061612Z 17008KT 25/19 A3004 RMK A01 T02470192  RH  071%=      5-min Rain = 0
KMC5 061613Z 17008KT 25/19 A3004 RMK A01 T02470192  RH  071%=      5-min Rain = 0
KMC5 061614Z 17008KT 25/19 A3004 RMK A01 T02480192  RH  071%=      5-min Rain = 0
KMC5 061615Z 17008KT 25/19 A3004 RMK A01 T02490190  RH  070%=      5-min Rain = 0
KMC5 061616Z 17008KT 25/19 A3004 RMK A01 T02490190  RH  069%=      5-min Rain = 0
KMC5 061617Z 18007KT 25/19 A3004 RMK A01 T02500188  RH  068%=      5-min Rain = 0
KMC5 061618Z 16006KT 25/19 A3004 RMK A01 T02500189  RH  069%=      5-min Rain = 0
KMC5 061619Z 16006KT 25/19 A3004 RMK A01 T02500190  RH  069%=      5-min Rain = 0
KMC5 061620Z 15006KT 25/19 A3004 RMK A01 T02500192  RH  070%=      5-min Rain = 0
KMC5 061621Z 15008KT 25/19 A3004 RMK A01 T02520191  RH  069%=      5-min Rain = 0
KMC5 061622Z 14007KT 25/19 A3004 RMK A01 T02520190  RH  068%=      5-min Rain = 0
KMC5 061623Z 15008KT 25/19 A3004 RMK A01 T02520189  RH  068%=      5-min Rain = 0
KMC5 061624Z 16006KT 25/19 A3004 RMK A01 T02510187  RH  067%=      5-min Rain = 0
KMC5 061625Z 15005KT 25/19 A3004 RMK A01 T02520188  RH  068%=      5-min Rain = 0
KMC5 061626Z 13005KT 25/19 A3004 RMK A01 T02520190  RH  068%=      5-min Rain = 0
KMC5 061627Z 14007KT 25/19 A3005 RMK A01 T02520189  RH  068%=      5-min Rain = 0
KMC5 061628Z 13006KT 25/19 A3005 RMK A01 T02520187  RH  068%=      5-min Rain = 0
KMC5 061629Z 12005KT 25/19 A3005 RMK A01 T02510188  RH  068%=      5-min Rain = 0
KMC5 061630Z 12005KT 25/19 A3005 RMK A01 T02510189  RH  068%=      5-min Rain = 0
KMC5 061631Z 13004KT 25/19 A3005 RMK A01 T02520189  RH  068%=      5-min Rain = 0
KMC5 061632Z 12006KT 25/19 A3005 RMK A01 T02530189  RH  068%=      5-min Rain = 0
KMC5 061633Z 12007KT 25/19 A3005 RMK A01 T02530188  RH  067%=      5-min Rain = 0
KMC5 061634Z 10006KT 25/19 A3005 RMK A01 T02520188  RH  067%=      5-min Rain = 0
KMC5 061635Z 11006KT 25/19 A3005 RMK A01 T02520188  RH  068%=      5-min Rain = 0
KMC5 061636Z 10006KT 25/19 A3005 RMK A01 T02520189  RH  068%=      5-min Rain = 0
KMC5 061637Z 10006KT 25/19 A3005 RMK A01 T02530188  RH  067%=      5-min Rain = 0
KMC5 061638Z 11007KT 25/19 A3005 RMK A01 T02530188  RH  067%=      5-min Rain = 0
KMC5 061639Z 12008KT 25/19 A3005 RMK A01 T02530187  RH  067%=      5-min Rain = 0
KMC5 061640Z 11007KT 25/19 A3005 RMK A01 T02540187  RH  067%=      5-min Rain = 0
KMC5 061641Z 12007KT 25/19 A3005 RMK A01 T02540187  RH  067%=      5-min Rain = 0
KMC5 061642Z 12008KT 25/19 A3005 RMK A01 T02540188  RH  067%=      5-min Rain = 0
KMC5 061643Z 13007KT 26/19 A3005 RMK A01 T02550187  RH  066%=      5-min Rain = 0
KMC5 061644Z 11007KT 26/19 A3005 RMK A01 T02550187  RH  066%=      5-min Rain = 0
KMC5 061645Z 10008KT 26/19 A3005 RMK A01 T02560187  RH  066%=      5-min Rain = 0
KMC5 061646Z 12007KT 26/19 A3005 RMK A01 T02560190  RH  067%=      5-min Rain = 0
KMC5 061647Z 13008KT 26/19 A3005 RMK A01 T02570187  RH  065%=      5-min Rain = 0
KMC5 061648Z 14008KT 26/19 A3005 RMK A01 T02570187  RH  065%=      5-min Rain = 0
KMC5 061649Z 14007KT 26/19 A3005 RMK A01 T02570188  RH  066%=      5-min Rain = 0
KMC5 061650Z 14008KT 26/19 A3005 RMK A01 T02570187  RH  065%=      5-min Rain = 0
KMC5 061651Z 14007KT 26/19 A3005 RMK A01 T02570185  RH  064%=      5-min Rain = 0
KMC5 061652Z 13006KT 26/19 A3005 RMK A01 T02570187  RH  065%=      5-min Rain = 0
KMC5 061653Z 13008KT 26/19 A3005 RMK A01 T02570189  RH  066%=      5-min Rain = 0
KMC5 061654Z 15008KT 26/19 A3005 RMK A01 T02580188  RH  065%=      5-min Rain = 0
KMC5 061655Z 14007KT 26/19 A3004 RMK A01 T02580187  RH  065%=      5-min Rain = 0
KMC5 061656Z 13008KT 26/19 A3005 RMK A01 T02580189  RH  066%=      5-min Rain = 0
KMC5 061657Z 13007KT 26/19 A3005 RMK A01 T02570187  RH  065%=      5-min Rain = 0
KMC5 061658Z 13008KT 26/19 A3005 RMK A01 T02570186  RH  065%=      5-min Rain = 0
KMC5 061659Z 13007KT 26/19 A3005 RMK A01 T02560188  RH  066%=      5-min Rain = 0
KMC5 061700Z 12008KT 26/19 A3005 RMK A01 T02560187  RH  065%=      5-min Rain = 0
KMC5 061701Z 12008KT 26/19 A3005 RMK A01 T02580187  RH  065%=      5-min Rain = 0
KMC5 061702Z 12008KT 26/19 A3005 RMK A01 T02590187  RH  065%=      5-min Rain = 0
KMC5 061703Z 12008KT 26/19 A3005 RMK A01 T02590186  RH  064%=      5-min Rain = 0
KMC5 061704Z 13006KT 26/19 A3005 RMK A01 T02590188  RH  065%=      5-min Rain = 0
KMC5 061705Z 13007KT 26/19 A3005 RMK A01 T02610190  RH  065%=      5-min Rain = 0
KMC5 061706Z 12008KT 26/19 A3005 RMK A01 T02630188  RH  063%=      5-min Rain = 0
KMC5 061707Z 11008KT 26/19 A3005 RMK A01 T02630187  RH  063%=      5-min Rain = 0
KMC5 061708Z 11008KT 26/19 A3005 RMK A01 T02620190  RH  064%=      5-min Rain = 0
KMC5 061709Z 11007KT 27/19 A3005 RMK A01 T02650188  RH  063%=      5-min Rain = 0
KMC5 061710Z 12006KT 27/19 A3005 RMK A01 T02650189  RH  063%=      5-min Rain = 0
KMC5 061711Z 13005KT 27/19 A3005 RMK A01 T02650185  RH  062%=      5-min Rain = 0
KMC5 061712Z 13005KT 26/19 A3005 RMK A01 T02640186  RH  062%=      5-min Rain = 0
KMC5 061713Z 13004KT 26/18 A3005 RMK A01 T02630184  RH  062%=      5-min Rain = 0
KMC5 061714Z 12008KT 26/19 A3005 RMK A01 T02620185  RH  063%=      5-min Rain = 0
KMC5 061715Z 12007KT 26/18 A3005 RMK A01 T02600184  RH  063%=      5-min Rain = 0
KMC5 061716Z 13004KT 26/19 A3005 RMK A01 T02590185  RH  064%=      5-min Rain = 0
KMC5 061717Z 14006KT 26/19 A3005 RMK A01 T02590187  RH  064%=      5-min Rain = 0
KMC5 061718Z 12007KT 26/19 A3005 RMK A01 T02620189  RH  064%=      5-min Rain = 0
KMC5 061719Z 11009KT 26/19 A3005 RMK A01 T02640189  RH  064%=      5-min Rain = 0
KMC5 061720Z 12008KT 26/19 A3005 RMK A01 T02640189  RH  063%=      5-min Rain = 0
KMC5 061721Z 12007KT 26/19 A3005 RMK A01 T02640189  RH  063%=      5-min Rain = 0
KMC5 061722Z 12007KT 26/19 A3005 RMK A01 T02640190  RH  064%=      5-min Rain = 0
KMC5 061723Z 12008KT 26/19 A3005 RMK A01 T02640189  RH  064%=      5-min Rain = 0
KMC5 061724Z 13008KT 26/19 A3005 RMK A01 T02630188  RH  063%=      5-min Rain = 0
KMC5 061725Z 12008KT 26/19 A3005 RMK A01 T02620192  RH  065%=      5-min Rain = 0
KMC5 061726Z 11009KT 26/19 A3004 RMK A01 T02640191  RH  064%=      5-min Rain = 0
KMC5 061727Z 11008KT 27/19 A3004 RMK A01 T02670190  RH  063%=      5-min Rain = 0
KMC5 061728Z 12008KT 27/19 A3004 RMK A01 T02670189  RH  062%=      5-min Rain = 0
KMC5 061729Z 12008KT 27/19 A3004 RMK A01 T02680193  RH  063%=      5-min Rain = 0
KMC5 061730Z 12009KT 27/19 A3004 RMK A01 T02720194  RH  062%=      5-min Rain = 0
KMC5 061731Z 11009KT 27/19 A3004 RMK A01 T02730191  RH  061%=      5-min Rain = 0
KMC5 061732Z 10008KT 27/19 A3004 RMK A01 T02700191  RH  062%=      5-min Rain = 0
KMC5 061733Z 12008KT 27/19 A3004 RMK A01 T02690191  RH  062%=      5-min Rain = 0
KMC5 061734Z 12010KT 27/19 A3004 RMK A01 T02690192  RH  063%=      5-min Rain = 0
KMC5 061735Z 12007KT 27/19 A3004 RMK A01 T02700189  RH  061%=      5-min Rain = 0
KMC5 061736Z 10008KT 27/19 A3004 RMK A01 T02690190  RH  062%=      5-min Rain = 0
KMC5 061737Z 10007KT 27/19 A3004 RMK A01 T02690189  RH  062%=      5-min Rain = 0
KMC5 061738Z 10009KT 27/19 A3004 RMK A01 T02680190  RH  062%=      5-min Rain = 0
KMC5 061739Z 10008KT 27/19 A3004 RMK A01 T02690186  RH  061%=      5-min Rain = 0
KMC5 061740Z 11010KT 27/19 A3004 RMK A01 T02710191  RH  062%=      5-min Rain = 0
KMC5 061741Z 11008KT 27/19 A3004 RMK A01 T02740189  RH  060%=      5-min Rain = 0
KMC5 061742Z 13009KT 28/19 A3004 RMK A01 T02750186  RH  058%=      5-min Rain = 0
KMC5 061743Z 12006KT 28/18 A3004 RMK A01 T02760184  RH  057%=      5-min Rain = 0
KMC5 061744Z 14006KT 28/18 A3004 RMK A01 T02770184  RH  057%=      5-min Rain = 0
KMC5 061745Z 15006KT 28/19 A3004 RMK A01 T02780186  RH  057%=      5-min Rain = 0
KMC5 061746Z 14006KT 28/19 A3004 RMK A01 T02780188  RH  058%=      5-min Rain = 0
KMC5 061747Z 16008KT 28/19 A3004 RMK A01 T02810187  RH  057%=      5-min Rain = 0
KMC5 061748Z 13009KT 28/19 A3004 RMK A01 T02810189  RH  057%=      5-min Rain = 0
KMC5 061749Z 13006KT 28/19 A3004 RMK A01 T02830187  RH  056%=      5-min Rain = 0
KMC5 061750Z 10008KT 29/19 A3004 RMK A01 T02850189  RH  056%=      5-min Rain = 0
KMC5 061751Z 11010KT 28/19 A3004 RMK A01 T02820190  RH  057%=      5-min Rain = 0
KMC5 061752Z 10010KT 28/19 A3004 RMK A01 T02810188  RH  057%=      5-min Rain = 0
KMC5 061753Z 11008KT 28/19 A3004 RMK A01 T02790190  RH  059%=      5-min Rain = 0
KMC5 061754Z 14006KT 28/19 A3004 RMK A01 T02820189  RH  057%=      5-min Rain = 0
KMC5 061755Z 13008KT 28/19 A3003 RMK A01 T02820189  RH  057%=      5-min Rain = 0
KMC5 061756Z 11006KT 28/19 A3003 RMK A01 T02810188  RH  057%=      5-min Rain = 0
KMC5 061757Z 14007KT 28/19 A3003 RMK A01 T02820189  RH  057%=      5-min Rain = 0
KMC5 061758Z 14008KT 29/19 A3003 RMK A01 T02870189  RH  055%=      5-min Rain = 0
KMC5 061759Z 17008KT 29/19 A3003 RMK A01 T02890185  RH  053%=      5-min Rain = 0
KMC5 061800Z 17008KT 29/18 A3003 RMK A01 T02890184  RH  053%=      5-min Rain = 0
KMC5 061801Z 15008KT 29/19 A3003 RMK A01 T02900185  RH  053%=      5-min Rain = 0
KMC5 061802Z 14009KT 29/19 A3003 RMK A01 T02910186  RH  053%=      5-min Rain = 0
KMC5 061803Z 13011KT 29/19 A3003 RMK A01 T02890187  RH  054%=      5-min Rain = 0
KMC5 061804Z 12009KT 29/19 A3003 RMK A01 T02870186  RH  055%=      5-min Rain = 0
KMC5 061805Z 14008KT 29/19 A3003 RMK A01 T02860185  RH  054%=      5-min Rain = 0
KMC5 061806Z 17008G14KT 29/19 A3003 RMK A01 T02860185  RH  054%=      5-min Rain = 0
KMC5 061807Z 16011KT 29/19 A3003 RMK A01 T02870185  RH  054%=      5-min Rain = 0
KMC5 061808Z 13010KT 29/19 A3003 RMK A01 T02870185  RH  054%=      5-min Rain = 0
KMC5 061809Z 13009KT 29/18 A3003 RMK A01 T02880184  RH  053%=      5-min Rain = 0
KMC5 061810Z 15010KT 29/18 A3003 RMK A01 T02880183  RH  053%=      5-min Rain = 0
KMC5 061811Z 15009KT 29/18 A3003 RMK A01 T02880183  RH  053%=      5-min Rain = 0
KMC5 061812Z 15010KT 29/18 A3003 RMK A01 T02890182  RH  052%=      5-min Rain = 0
KMC5 061813Z 16010KT 29/18 A3003 RMK A01 T02870179  RH  052%=      5-min Rain = 0
KMC5 061814Z 15011KT 29/18 A3003 RMK A01 T02850181  RH  053%=      5-min Rain = 0
KMC5 061815Z 15010KT 29/18 A3003 RMK A01 T02850179  RH  053%=      5-min Rain = 0
KMC5 061816Z 15011KT 28/18 A3003 RMK A01 T02840179  RH  053%=      5-min Rain = 0
KMC5 061817Z 15009KT 28/18 A3003 RMK A01 T02830179  RH  053%=      5-min Rain = 0
KMC5 061818Z 17011KT 28/18 A3003 RMK A01 T02830181  RH  054%=      5-min Rain = 0
KMC5 061819Z 16012KT 29/18 A3003 RMK A01 T02850180  RH  053%=      5-min Rain = 0
KMC5 061820Z 16011KT 29/18 A3003 RMK A01 T02870181  RH  053%=      5-min Rain = 0
KMC5 061821Z 15013KT 29/18 A3002 RMK A01 T02880180  RH  052%=      5-min Rain = 0
KMC5 061822Z 15013KT 29/18 A3002 RMK A01 T02890178  RH  051%=      5-min Rain = 0
KMC5 061823Z 16012KT 29/18 A3002 RMK A01 T02880177  RH  051%=      5-min Rain = 0
KMC5 061824Z 17011KT 29/18 A3002 RMK A01 T02870180  RH  052%=      5-min Rain = 0
KMC5 061825Z 17010KT 29/18 A3002 RMK A01 T02880179  RH  052%=      5-min Rain = 0
KMC5 061826Z 16011KT 29/18 A3002 RMK A01 T02870178  RH  052%=      5-min Rain = 0
KMC5 061827Z 15009KT 29/18 A3002 RMK A01 T02860180  RH  053%=      5-min Rain = 0
KMC5 061828Z 14011KT 29/18 A3002 RMK A01 T02860182  RH  053%=      5-min Rain = 0
KMC5 061829Z 15013KT 29/18 A3002 RMK A01 T02870182  RH  053%=      5-min Rain = 0
KMC5 061830Z 16012KT 29/18 A3002 RMK A01 T02900182  RH  052%=      5-min Rain = 0
KMC5 061831Z 15010KT 29/18 A3002 RMK A01 T02910182  RH  052%=      5-min Rain = 0
KMC5 061832Z 14011KT 29/19 A3002 RMK A01 T02930185  RH  052%=      5-min Rain = 0
KMC5 061833Z 16014KT 30/19 A3002 RMK A01 T02960185  RH  052%=      5-min Rain = 0
KMC5 061834Z 14015KT 30/19 A3002 RMK A01 T02970185  RH  051%=      5-min Rain = 0
KMC5 061835Z 14013KT 30/18 A3002 RMK A01 T02990183  RH  050%=      5-min Rain = 0
KMC5 061836Z 14012KT 30/18 A3002 RMK A01 T02980183  RH  050%=      5-min Rain = 0
KMC5 061837Z 15014KT 30/18 A3002 RMK A01 T02990183  RH  050%=      5-min Rain = 0
KMC5 061838Z 15013KT 30/18 A3002 RMK A01 T02960181  RH  050%=      5-min Rain = 0
KMC5 061839Z 16013KT 29/18 A3002 RMK A01 T02930179  RH  050%=      5-min Rain = 0
KMC5 061840Z 17010KT 29/18 A3002 RMK A01 T02910181  RH  051%=      5-min Rain = 0
KMC5 061841Z 15010KT 29/19 A3002 RMK A01 T02920185  RH  052%=      5-min Rain = 0
KMC5 061842Z 14012KT 30/19 A3002 RMK A01 T02960185  RH  051%=      5-min Rain = 0
KMC5 061843Z 14012KT 30/19 A3002 RMK A01 T03000186  RH  050%=      5-min Rain = 0
KMC5 061844Z 14012KT 30/19 A3001 RMK A01 T03020186  RH  050%=      5-min Rain = 0
KMC5 061845Z 13014KT 30/19 A3001 RMK A01 T03040187  RH  050%=      5-min Rain = 0
KMC5 061846Z 15013KT 30/19 A3001 RMK A01 T03040187  RH  050%=      5-min Rain = 0
KMC5 061847Z 14013KT 30/18 A3001 RMK A01 T03040184  RH  049%=      5-min Rain = 0
KMC5 061848Z 14014KT 30/19 A3001 RMK A01 T03010186  RH  050%=      5-min Rain = 0
KMC5 061849Z 14012KT 30/19 A3001 RMK A01 T03030190  RH  051%=      5-min Rain = 0
KMC5 061850Z 15013KT 31/19 A3001 RMK A01 T03080189  RH  049%=      5-min Rain = 0
KMC5 061851Z 15013KT 31/19 A3001 RMK A01 T03090186  RH  048%=      5-min Rain = 0
KMC5 061852Z 15014KT 31/19 A3001 RMK A01 T03080189  RH  049%=      5-min Rain = 0
KMC5 061853Z 14015KT 31/19 A3001 RMK A01 T03090187  RH  048%=      5-min Rain = 0
KMC5 061854Z 15014KT 31/19 A3001 RMK A01 T03090185  RH  048%=      5-min Rain = 0
KMC5 061855Z 14012KT 31/19 A3001 RMK A01 T03090187  RH  048%=      5-min Rain = 0
KMC5 061856Z 14010KT 31/19 A3001 RMK A01 T03110190  RH  049%=      5-min Rain = 0
KMC5 061857Z 15015KT 31/19 A3001 RMK A01 T03140185  RH  046%=      5-min Rain = 0
KMC5 061858Z 16013KT 32/18 A30 RMK A01 T03150183  RH  045%=      5-min Rain = 0
KMC5 061859Z 16011G17KT 32/18 A3001 RMK A01 T03150182  RH  045%=      5-min Rain = 0
KMC5 061900Z 14016KT 31/18 A30 RMK A01 T03140183  RH  046%=      5-min Rain = 0
KMC5 061901Z 14012KT 31/19 A30 RMK A01 T03140186  RH  046%=      5-min Rain = 0
KMC5 061902Z 15011KT 32/18 A30 RMK A01 T03160183  RH  045%=      5-min Rain = 0
KMC5 061903Z 14012KT 32/18 A30 RMK A01 T03180183  RH  045%=      5-min Rain = 0
KMC5 061904Z 14013G18KT 32/18 A30 RMK A01 T03190184  RH  045%=      5-min Rain = 0
KMC5 061905Z 15014KT 32/19 A30 RMK A01 T03170185  RH  045%=      5-min Rain = 0
KMC5 061906Z 16015KT 32/18 A30 RMK A01 T03190182  RH  044%=      5-min Rain = 0
KMC5 061907Z 16013KT 32/19 A30 RMK A01 T03200185  RH  045%=      5-min Rain = 0
KMC5 061908Z 16015KT 32/18 A30 RMK A01 T03200181  RH  044%=      5-min Rain = 0
KMC5 061909Z 15019KT 32/18 A30 RMK A01 T03170180  RH  044%=      5-min Rain = 0
KMC5 061910Z 16017KT 31/18 A30 RMK A01 T03130179  RH  045%=      5-min Rain = 0
KMC5 061911Z 16018KT 31/18 A3001 RMK A01 T03090179  RH  046%=      5-min Rain = 0
KMC5 061912Z 17016KT 31/18 A3001 RMK A01 T03060182  RH  047%=      5-min Rain = 0
KMC5 061913Z 16015KT 31/18 A3001 RMK A01 T03060183  RH  048%=      5-min Rain = 0
KMC5 061914Z 17014KT 31/18 A3001 RMK A01 T03050183  RH  048%=      5-min Rain = 0
KMC5 061915Z 16015KT 30/18 A3001 RMK A01 T03040182  RH  048%=      5-min Rain = 0
KMC5 061916Z 16016KT 30/18 A30 RMK A01 T03040180  RH  048%=      5-min Rain = 0
KMC5 061917Z 17014KT 30/18 A30 RMK A01 T03040182  RH  048%=      5-min Rain = 0
KMC5 061918Z 17014KT 30/18 A30 RMK A01 T03030182  RH  049%=      5-min Rain = 0
KMC5 061919Z 18017KT 30/18 A30 RMK A01 T03030175  RH  047%=      5-min Rain = 0
KMC5 061920Z 18014KT 30/17 A3001 RMK A01 T03010173  RH  046%=      5-min Rain = 0
KMC5 061921Z 16013KT 30/18 A3001 RMK A01 T03000180  RH  049%=      5-min Rain = 0
KMC5 061922Z 15014G19KT 30/18 A3001 RMK A01 T03000181  RH  049%=      5-min Rain = 0
KMC5 061923Z 16018KT 30/18 A3001 RMK A01 T02980177  RH  048%=      5-min Rain = 0
KMC5 061924Z 17017KT 30/18 A3001 RMK A01 T02970177  RH  048%=      5-min Rain = 0
KMC5 061925Z 17015KT 30/18 A3001 RMK A01 T02960179  RH  049%=      5-min Rain = 0
KMC5 061926Z 16014KT 30/18 A3001 RMK A01 T02950179  RH  050%=      5-min Rain = 0
KMC5 061927Z 15012KT 30/18 A3001 RMK A01 T02950179  RH  050%=      5-min Rain = 0
KMC5 061928Z 15014KT 29/18 A3001 RMK A01 T02940181  RH  051%=      5-min Rain = 0
KMC5 061929Z 16016KT 29/18 A30 RMK A01 T02930181  RH  051%=      5-min Rain = 0
KMC5 061930Z 15014KT 29/18 A30 RMK A01 T02910181  RH  051%=      5-min Rain = 0
KMC5 061931Z 16016KT 29/18 A30 RMK A01 T02900180  RH  051%=      5-min Rain = 0
KMC5 061932Z 16015KT 29/18 A30 RMK A01 T02890181  RH  052%=      5-min Rain = 0
KMC5 061933Z 16014KT 29/18 A30 RMK A01 T02890180  RH  052%=      5-min Rain = 0
KMC5 061934Z 16014KT 29/18 A30 RMK A01 T02890180  RH  052%=      5-min Rain = 0
KMC5 061935Z 16014KT 29/18 A30 RMK A01 T02880180  RH  052%=      5-min Rain = 0
KMC5 061936Z 15013KT 29/18 A30 RMK A01 T02880179  RH  052%=      5-min Rain = 0
KMC5 061937Z 15015KT 29/18 A30 RMK A01 T02880178  RH  051%=      5-min Rain = 0
KMC5 061938Z 15014KT 29/18 A30 RMK A01 T02870178  RH  052%=      5-min Rain = 0
KMC5 061939Z 15014KT 29/18 A30 RMK A01 T02870178  RH  052%=      5-min Rain = 0
KMC5 061940Z 16015KT 29/18 A30 RMK A01 T02860180  RH  052%=      5-min Rain = 0
KMC5 061941Z 16014KT 29/18 A30 RMK A01 T02860181  RH  053%=      5-min Rain = 0
KMC5 061942Z 16015KT 29/18 A30 RMK A01 T02860181  RH  053%=      5-min Rain = 0
KMC5 061943Z 15014KT 29/18 A30 RMK A01 T02860179  RH  052%=      5-min Rain = 0
KMC5 061944Z 15014KT 29/18 A30 RMK A01 T02860177  RH  052%=      5-min Rain = 0
KMC5 061945Z 16012KT 29/18 A30 RMK A01 T02860175  RH  051%=      5-min Rain = 0
KMC5 061946Z 16010KT 29/18 A30 RMK A01 T02870177  RH  051%=      5-min Rain = 0
KMC5 061947Z 15011KT 29/18 A30 RMK A01 T02870178  RH  052%=      5-min Rain = 0
KMC5 061948Z 15011KT 29/18 A30 RMK A01 T02880180  RH  052%=      5-min Rain = 0
KMC5 061949Z 15013KT 29/18 A30 RMK A01 T02890181  RH  052%=      5-min Rain = 0
KMC5 061950Z 15013KT 29/18 A30 RMK A01 T02890182  RH  052%=      5-min Rain = 0
KMC5 061951Z 13015KT 29/18 A30 RMK A01 T02900178  RH  051%=      5-min Rain = 0
KMC5 061952Z 15013KT 29/18 A30 RMK A01 T02900176  RH  050%=      5-min Rain = 0
KMC5 061953Z 15012KT 29/18 A30 RMK A01 T02920179  RH  050%=      5-min Rain = 0
KMC5 061954Z 15012KT 30/18 A30 RMK A01 T02970180  RH  050%=      5-min Rain = 0
KMC5 061955Z 14012KT 30/19 A30 RMK A01 T03030185  RH  049%=      5-min Rain = 0
KMC5 061956Z 14015KT 31/18 A30 RMK A01 T03070180  RH  047%=      5-min Rain = 0
KMC5 061957Z 14014KT 31/18 A2999 RMK A01 T03070181  RH  047%=      5-min Rain = 0
KMC5 061958Z 13015KT 31/18 A2999 RMK A01 T03110181  RH  046%=      5-min Rain = 0
KMC5 061959Z 14017KT 31/18 A2999 RMK A01 T03130178  RH  045%=      5-min Rain = 0
KMC5 062000Z 15016KT 31/18 A2999 RMK A01 T03120180  RH  045%=      5-min Rain = 0
KMC5 062001Z 16015G21KT 31/18 A2999 RMK A01 T03140181  RH  045%=      5-min Rain = 0
KMC5 062002Z 16019KT 31/18 A2999 RMK A01 T03140177  RH  044%=      5-min Rain = 0
KMC5 062003Z 14015KT 31/18 A2999 RMK A01 T03110177  RH  045%=      5-min Rain = 0
KMC5 062004Z 14014KT 31/18 A2999 RMK A01 T03100178  RH  045%=      5-min Rain = 0
KMC5 062005Z 14015KT 31/18 A2999 RMK A01 T03090177  RH  045%=      5-min Rain = 0
KMC5 062006Z 15016KT 31/18 A2999 RMK A01 T03090175  RH  045%=      5-min Rain = 0
KMC5 062007Z 15018KT 31/17 A2999 RMK A01 T03080174  RH  045%=      5-min Rain = 0
KMC5 062008Z 14019KT 31/17 A2999 RMK A01 T03070174  RH  045%=      5-min Rain = 0
KMC5 062009Z 16016G21KT 31/17 A2999 RMK A01 T03080173  RH  045%=      5-min Rain = 0
KMC5 062010Z 16013KT 31/18 A2999 RMK A01 T03100176  RH  045%=      5-min Rain = 0
KMC5 062011Z 15017KT 31/18 A2999 RMK A01 T03130176  RH  044%=      5-min Rain = 0
KMC5 062012Z 16020KT 32/17 A2998 RMK A01 T03160174  RH  043%=      5-min Rain = 0
KMC5 062013Z 15021KT 32/17 A2998 RMK A01 T03180173  RH  042%=      5-min Rain = 0
KMC5 062014Z 15019KT 32/18 A2998 RMK A01 T03200175  RH  042%=      5-min Rain = 0
KMC5 062015Z 15020KT 32/17 A2998 RMK A01 T03220173  RH  041%=      5-min Rain = 0
KMC5 062016Z 15020KT 32/17 A2998 RMK A01 T03200172  RH  041%=      5-min Rain = 0
KMC5 062017Z 15016KT 32/17 A2998 RMK A01 T03170173  RH  042%=      5-min Rain = 0
KMC5 062018Z 16019KT 32/17 A2998 RMK A01 T03170173  RH  042%=      5-min Rain = 0
KMC5 062019Z 16019KT 32/17 A2998 RMK A01 T03160172  RH  042%=      5-min Rain = 0
KMC5 062020Z 16015KT 31/17 A2998 RMK A01 T03140171  RH  042%=      5-min Rain = 0
KMC5 062021Z 16014KT 31/18 A2998 RMK A01 T03140175  RH  044%=      5-min Rain = 0
KMC5 062022Z 15019KT 32/17 A2998 RMK A01 T03150174  RH  043%=      5-min Rain = 0
KMC5 062023Z 17015KT 32/17 A2998 RMK A01 T03150173  RH  043%=      5-min Rain = 0
KMC5 062024Z 16018KT 31/17 A2998 RMK A01 T03130170  RH  042%=      5-min Rain = 0
KMC5 062025Z 17014KT 31/17 A2998 RMK A01 T03130170  RH  042%=      5-min Rain = 0
KMC5 062026Z 15015KT 31/17 A2998 RMK A01 T03130171  RH  042%=      5-min Rain = 0
KMC5 062027Z 16014KT 31/17 A2998 RMK A01 T03130171  RH  043%=      5-min Rain = 0
KMC5 062028Z 14015KT 31/17 A2998 RMK A01 T03130171  RH  043%=      5-min Rain = 0
KMC5 062029Z 15016KT 31/17 A2998 RMK A01 T03140170  RH  042%=      5-min Rain = 0
KMC5 062030Z 15018KT 31/17 A2998 RMK A01 T03140165  RH  041%=      5-min Rain = 0
KMC5 062031Z 14018KT 31/17 A2998 RMK A01 T03120166  RH  041%=      5-min Rain = 0
KMC5 062032Z 14017KT 31/17 A2998 RMK A01 T03120166  RH  042%=      5-min Rain = 0
KMC5 062033Z 14017KT 31/17 A2998 RMK A01 T03120167  RH  042%=      5-min Rain = 0
KMC5 062034Z 14014KT 31/17 A2998 RMK A01 T03130167  RH  042%=      5-min Rain = 0
KMC5 062035Z 15015KT 31/17 A2998 RMK A01 T03130168  RH  042%=      5-min Rain = 0
KMC5 062036Z 15014KT 31/17 A2998 RMK A01 T03140167  RH  041%=      5-min Rain = 0
KMC5 062037Z 15015KT 31/17 A2998 RMK A01 T03140167  RH  041%=      5-min Rain = 0
KMC5 062038Z 15015KT 32/16 A2998 RMK A01 T03150164  RH  040%=      5-min Rain = 0
KMC5 062039Z 15015KT 32/17 A2998 RMK A01 T03160165  RH  040%=      5-min Rain = 0
KMC5 062040Z 14016KT 32/16 A2998 RMK A01 T03150164  RH  040%=      5-min Rain = 0
KMC5 062041Z 15015KT 32/16 A2998 RMK A01 T03160164  RH  040%=      5-min Rain = 0
KMC5 062042Z 16015KT 32/16 A2998 RMK A01 T03160164  RH  040%=      5-min Rain = 0
KMC5 062043Z 15013KT 32/16 A2998 RMK A01 T03150164  RH  040%=      5-min Rain = 0
KMC5 062044Z 14015KT 32/16 A2998 RMK A01 T03150163  RH  040%=      5-min Rain = 0
KMC5 062045Z 14016KT 32/16 A2998 RMK A01 T03150163  RH  040%=      5-min Rain = 0
KMC5 062046Z 15018KT 32/16 A2998 RMK A01 T03160163  RH  040%=      5-min Rain = 0
KMC5 062047Z 16017KT 32/16 A2998 RMK A01 T03170162  RH  039%=      5-min Rain = 0
KMC5 062048Z 16013KT 32/16 A2999 RMK A01 T03170163  RH  040%=      5-min Rain = 0
KMC5 062049Z 16015KT 32/16 A2999 RMK A01 T03180163  RH  039%=      5-min Rain = 0
KMC5 062050Z 16015KT 32/16 A2999 RMK A01 T03190160  RH  039%=      5-min Rain = 0
KMC5 062051Z 16015KT 32/16 A2999 RMK A01 T03180162  RH  039%=      5-min Rain = 0
KMC5 062052Z 17015KT 32/16 A2999 RMK A01 T03180160  RH  039%=      5-min Rain = 0
KMC5 062053Z 18013KT 32/16 A2999 RMK A01 T03180161  RH  039%=      5-min Rain = 0
KMC5 062054Z 17015KT 32/16 A2999 RMK A01 T03180162  RH  039%=      5-min Rain = 0
KMC5 062055Z 16014KT 32/16 A2999 RMK A01 T03180160  RH  039%=      5-min Rain = 0
KMC5 062056Z 15015KT 32/16 A2999 RMK A01 T03180161  RH  039%=      5-min Rain = 0
KMC5 062057Z 16014KT 32/16 A2999 RMK A01 T03160161  RH  039%=      5-min Rain = 0
KMC5 062058Z 16013KT 31/16 A2999 RMK A01 T03140160  RH  039%=      5-min Rain = 0
KMC5 062059Z 16013KT 31/16 A2999 RMK A01 T03140160  RH  039%=      5-min Rain = 0
KMC5 062100Z 15013KT 31/16 A2999 RMK A01 T03140162  RH  040%=      5-min Rain = 0
KMC5 062101Z 15015KT 31/16 A2999 RMK A01 T03140162  RH  040%=      5-min Rain = 0
KMC5 062102Z 15015KT 31/16 A2999 RMK A01 T03130161  RH  040%=      5-min Rain = 0
KMC5 062103Z 15015KT 31/16 A2998 RMK A01 T03120160  RH  040%=      5-min Rain = 0
KMC5 062104Z 16015KT 31/16 A2998 RMK A01 T03120159  RH  040%=      5-min Rain = 0
KMC5 062105Z 17014KT 31/16 A2998 RMK A01 T03120159  RH  040%=      5-min Rain = 0
KMC5 062106Z 17013KT 31/16 A2998 RMK A01 T03120158  RH  040%=      5-min Rain = 0
KMC5 062107Z 16010KT 31/16 A2998 RMK A01 T03120162  RH  040%=      5-min Rain = 0
KMC5 062108Z 16012G17KT 31/16 A2998 RMK A01 T03130162  RH  040%=      5-min Rain = 0
KMC5 062109Z 17012KT 31/16 A2998 RMK A01 T03140160  RH  040%=      5-min Rain = 0
KMC5 062110Z 15012KT 31/16 A2998 RMK A01 T03140162  RH  040%=      5-min Rain = 0
KMC5 062111Z 16013KT 31/16 A2998 RMK A01 T03140161  RH  040%=      5-min Rain = 0
KMC5 062112Z 16012KT 31/16 A2998 RMK A01 T03140163  RH  040%=      5-min Rain = 0
KMC5 062113Z 16012KT 31/16 A2998 RMK A01 T03140163  RH  040%=      5-min Rain = 0
KMC5 062114Z 17013KT 32/16 A2998 RMK A01 T03160163  RH  040%=      5-min Rain = 0
KMC5 062115Z 16011KT 32/17 A2998 RMK A01 T03200166  RH  040%=      5-min Rain = 0
KMC5 062116Z 15014KT 32/16 A2998 RMK A01 T03220163  RH  038%=      5-min Rain = 0
KMC5 062117Z 16013KT 32/16 A2998 RMK A01 T03230161  RH  038%=      5-min Rain = 0
KMC5 062118Z 18012KT 32/16 A2998 RMK A01 T03230161  RH  038%=      5-min Rain = 0
KMC5 062119Z 16015KT 33/16 A2998 RMK A01 T03250163  RH  038%=      5-min Rain = 0
KMC5 062120Z 17013KT 33/16 A2998 RMK A01 T03250159  RH  037%=      5-min Rain = 0
KMC5 062121Z 15012KT 33/16 A2998 RMK A01 T03250162  RH  038%=      5-min Rain = 0
KMC5 062122Z 15016KT 33/16 A2998 RMK A01 T03250159  RH  037%=      5-min Rain = 0
KMC5 062123Z 14015KT 33/16 A2998 RMK A01 T03250159  RH  037%=      5-min Rain = 0
KMC5 062124Z 14014KT 32/16 A2998 RMK A01 T03240160  RH  037%=      5-min Rain = 0
KMC5 062125Z 14012G17KT 32/16 A2998 RMK A01 T03230159  RH  037%=      5-min Rain = 0
KMC5 062126Z 14014KT 32/16 A2998 RMK A01 T03220161  RH  038%=      5-min Rain = 0
KMC5 062127Z 15016KT 32/16 A2998 RMK A01 T03230160  RH  037%=      5-min Rain = 0
KMC5 062128Z 16013KT 32/16 A2998 RMK A01 T03240159  RH  037%=      5-min Rain = 0
KMC5 062129Z 15015KT 32/16 A2998 RMK A01 T03240159  RH  037%=      5-min Rain = 0
KMC5 062130Z 15015KT 32/16 A2998 RMK A01 T03240157  RH  037%=      5-min Rain = 0
KMC5 062131Z 16012KT 32/16 A2998 RMK A01 T03240157  RH  037%=      5-min Rain = 0
KMC5 062132Z 16015KT 32/16 A2998 RMK A01 T03240158  RH  037%=      5-min Rain = 0
KMC5 062133Z 17015KT 32/15 A2997 RMK A01 T03240153  RH  036%=      5-min Rain = 0
KMC5 062134Z 15017KT 32/16 A2997 RMK A01 T03230155  RH  036%=      5-min Rain = 0
KMC5 062135Z 16015KT 32/16 A2997 RMK A01 T03230155  RH  036%=      5-min Rain = 0
KMC5 062136Z 16015KT 32/16 A2997 RMK A01 T03230157  RH  037%=      5-min Rain = 0
KMC5 062137Z 16017KT 32/16 A2997 RMK A01 T03220155  RH  037%=      5-min Rain = 0
KMC5 062138Z 15018KT 32/15 A2997 RMK A01 T03220152  RH  036%=      5-min Rain = 0
KMC5 062139Z 16017KT 32/15 A2997 RMK A01 T03210150  RH  036%=      5-min Rain = 0
KMC5 062140Z 15018KT 32/15 A2997 RMK A01 T03210153  RH  036%=      5-min Rain = 0
KMC5 062141Z 15018KT 32/15 A2997 RMK A01 T03200152  RH  036%=      5-min Rain = 0
KMC5 062142Z 16017KT 32/15 A2997 RMK A01 T03200154  RH  037%=      5-min Rain = 0
KMC5 062143Z 16018KT 32/15 A2997 RMK A01 T03200151  RH  036%=      5-min Rain = 0
KMC5 062144Z 16016KT 32/15 A2997 RMK A01 T03200152  RH  036%=      5-min Rain = 0
KMC5 062145Z 14015KT 32/15 A2997 RMK A01 T03210153  RH  036%=      5-min Rain = 0
KMC5 062146Z 16012KT 32/15 A2997 RMK A01 T03210153  RH  036%=      5-min Rain = 0
KMC5 062147Z 16013KT 32/16 A2997 RMK A01 T03210155  RH  037%=      5-min Rain = 0
KMC5 062148Z 15014KT 32/15 A2996 RMK A01 T03210153  RH  036%=      5-min Rain = 0
KMC5 062149Z 16016KT 32/15 A2996 RMK A01 T03210149  RH  035%=      5-min Rain = 0
KMC5 062150Z 16014KT 32/15 A2996 RMK A01 T03220147  RH  035%=      5-min Rain = 0
KMC5 062151Z 17013KT 32/15 A2996 RMK A01 T03230149  RH  035%=      5-min Rain = 0
KMC5 062152Z 16014KT 32/15 A2996 RMK A01 T03240146  RH  034%=      5-min Rain = 0
KMC5 062153Z 16012KT 33/15 A2996 RMK A01 T03250146  RH  034%=      5-min Rain = 0
KMC5 062154Z 16015KT 33/15 A2996 RMK A01 T03270147  RH  034%=      5-min Rain = 0
KMC5 062155Z 16015KT 33/14 A2996 RMK A01 T03280142  RH  033%=      5-min Rain = 0
KMC5 062156Z 16016KT 33/14 A2996 RMK A01 T03280140  RH  032%=      5-min Rain = 0
KMC5 062157Z 16014KT 33/14 A2996 RMK A01 T03280141  RH  032%=      5-min Rain = 0
KMC5 062158Z 16015KT 33/14 A2996 RMK A01 T03280144  RH  033%=      5-min Rain = 0
KMC5 062159Z 16015KT 33/14 A2996 RMK A01 T03280142  RH  032%=      5-min Rain = 0
KMC5 062200Z 16013KT 33/14 A2996 RMK A01 T03280143  RH  033%=      5-min Rain = 0
KMC5 062201Z 14013KT 33/15 A2996 RMK A01 T03280145  RH  033%=      5-min Rain = 0
KMC5 062202Z 16013KT 33/15 A2996 RMK A01 T03280146  RH  033%=      5-min Rain = 0
KMC5 062203Z 16014KT 33/15 A2996 RMK A01 T03280147  RH  034%=      5-min Rain = 0
KMC5 062204Z 16017KT 33/15 A2996 RMK A01 T03290145  RH  033%=      5-min Rain = 0
KMC5 062205Z 16012KT 33/15 A2996 RMK A01 T03290147  RH  033%=      5-min Rain = 0
KMC5 062206Z 17013KT 33/15 A2996 RMK A01 T03300147  RH  033%=      5-min Rain = 0
KMC5 062207Z 17012G18KT 33/15 A2996 RMK A01 T03310147  RH  033%=      5-min Rain = 0
KMC5 062208Z 16017KT 33/15 A2996 RMK A01 T03320146  RH  033%=      5-min Rain = 0
KMC5 062209Z 16019KT 33/15 A2996 RMK A01 T03320150  RH  033%=      5-min Rain = 0
KMC5 062210Z 15015KT 33/15 A2996 RMK A01 T03310150  RH  034%=      5-min Rain = 0
KMC5 062211Z 15019KT 33/15 A2996 RMK A01 T03300152  RH  034%=      5-min Rain = 0
KMC5 062212Z 15020KT 33/15 A2996 RMK A01 T03280150  RH  034%=      5-min Rain = 0
KMC5 062213Z 15017KT 33/15 A2996 RMK A01 T03270149  RH  034%=      5-min Rain = 0
KMC5 062214Z 15018G23KT 33/15 A2996 RMK A01 T03270149  RH  034%=      5-min Rain = 0
KMC5 062215Z 15020KT 33/15 A2996 RMK A01 T03270149  RH  034%=      5-min Rain = 0
KMC5 062216Z 15019KT 33/15 A2996 RMK A01 T03300147  RH  033%=      5-min Rain = 0
KMC5 062217Z 16016KT 33/15 A2996 RMK A01 T03320149  RH  033%=      5-min Rain = 0
KMC5 062218Z 15017KT 34/15 A2996 RMK A01 T03360152  RH  033%=      5-min Rain = 0
KMC5 062219Z 15018G23KT 34/15 A2996 RMK A01 T03380151  RH  033%=      5-min Rain = 0
KMC5 062220Z 15019KT 34/15 A2996 RMK A01 T03350148  RH  033%=      5-min Rain = 0
KMC5 062221Z 15018KT 33/15 A2996 RMK A01 T03300149  RH  033%=      5-min Rain = 0
KMC5 062222Z 15017KT 33/15 A2996 RMK A01 T03290147  RH  034%=      5-min Rain = 0
KMC5 062223Z 15018KT 33/15 A2996 RMK A01 T03270147  RH  034%=      5-min Rain = 0
KMC5 062224Z 15019KT 33/15 A2996 RMK A01 T03250147  RH  034%=      5-min Rain = 0
KMC5 062225Z 15017KT 32/15 A2995 RMK A01 T03230146  RH  034%=      5-min Rain = 0
KMC5 062226Z 15016KT 32/15 A2995 RMK A01 T03220148  RH  035%=      5-min Rain = 0
KMC5 062227Z 14019KT 32/15 A2995 RMK A01 T03220148  RH  035%=      5-min Rain = 0
KMC5 062228Z 14016G21KT 32/15 A2995 RMK A01 T03210147  RH  035%=      5-min Rain = 0
KMC5 062229Z 14018KT 32/15 A2995 RMK A01 T03210148  RH  035%=      5-min Rain = 0
KMC5 062230Z 15017KT 32/15 A2995 RMK A01 T03210145  RH  035%=      5-min Rain = 0
KMC5 062231Z 15015KT 32/15 A2995 RMK A01 T03220146  RH  035%=      5-min Rain = 0
KMC5 062232Z 14017KT 32/15 A2995 RMK A01 T03220146  RH  034%=      5-min Rain = 0
KMC5 062233Z 13015KT 32/15 A2995 RMK A01 T03230149  RH  035%=      5-min Rain = 0
KMC5 062234Z 14017KT 32/15 A2995 RMK A01 T03240150  RH  035%=      5-min Rain = 0
KMC5 062235Z 13017KT 32/15 A2995 RMK A01 T03240149  RH  035%=      5-min Rain = 0
KMC5 062236Z 14015KT 32/15 A2995 RMK A01 T03230149  RH  035%=      5-min Rain = 0
KMC5 062237Z 14015KT 32/15 A2995 RMK A01 T03220151  RH  036%=      5-min Rain = 0
KMC5 062238Z 14018KT 32/15 A2995 RMK A01 T03230150  RH  035%=      5-min Rain = 0
KMC5 062239Z 14017KT 32/15 A2995 RMK A01 T03220150  RH  035%=      5-min Rain = 0
KMC5 062240Z 14017KT 32/15 A2995 RMK A01 T03220150  RH  035%=      5-min Rain = 0
KMC5 062241Z 14016KT 32/15 A2995 RMK A01 T03240151  RH  035%=      5-min Rain = 0
KMC5 062242Z 14019KT 33/15 A2995 RMK A01 T03270149  RH  034%=      5-min Rain = 0
KMC5 062243Z 14018KT 33/15 A2995 RMK A01 T03270150  RH  034%=      5-min Rain = 0
KMC5 062244Z 15019KT 33/15 A2995 RMK A01 T03270150  RH  034%=      5-min Rain = 0
KMC5 062245Z 15020KT 33/15 A2995 RMK A01 T03260150  RH  035%=      5-min Rain = 0
KMC5 062246Z 14018KT 33/15 A2995 RMK A01 T03260148  RH  034%=      5-min Rain = 0
KMC5 062247Z 14017G22KT 32/15 A2995 RMK A01 T03240150  RH  035%=      5-min Rain = 0
KMC5 062248Z 14017KT 32/15 A2995 RMK A01 T03240150  RH  035%=      5-min Rain = 0
KMC5 062249Z 14019KT 32/15 A2995 RMK A01 T03240149  RH  035%=      5-min Rain = 0
KMC5 062250Z 15018KT 32/15 A2995 RMK A01 T03220150  RH  035%=      5-min Rain = 0
KMC5 062251Z 14013KT 32/15 A2995 RMK A01 T03220152  RH  036%=      5-min Rain = 0
KMC5 062252Z 15020G26KT 32/15 A2995 RMK A01 T03220151  RH  036%=      5-min Rain = 0
KMC5 062253Z 16016KT 32/15 A2995 RMK A01 T03220148  RH  035%=      5-min Rain = 0
KMC5 062254Z 16016G21KT 32/15 A2995 RMK A01 T03240150  RH  035%=      5-min Rain = 0
KMC5 062255Z 15017KT 33/15 A2995 RMK A01 T03270149  RH  034%=      5-min Rain = 0
KMC5 062256Z 14016G22KT 33/15 A2995 RMK A01 T03290151  RH  034%=      5-min Rain = 0
KMC5 062257Z 14019KT 33/15 A2995 RMK A01 T03320149  RH  033%=      5-min Rain = 0
KMC5 062258Z 15016G21KT 33/15 A2995 RMK A01 T03330151  RH  034%=      5-min Rain = 0
KMC5 062259Z 15020KT 33/15 A2995 RMK A01 T03330151  RH  033%=      5-min Rain = 0
KMC5 062300Z 14018G23KT 33/15 A2994 RMK A01 T03330150  RH  033%=      5-min Rain = 0
KMC5 062301Z 14017KT 33/15 A2994 RMK A01 T03320151  RH  034%=      5-min Rain = 0
KMC5 062302Z 14017KT 33/15 A2994 RMK A01 T03290151  RH  034%=      5-min Rain = 0
KMC5 062303Z 15015KT 33/15 A2994 RMK A01 T03270150  RH  034%=      5-min Rain = 0
KMC5 062304Z 14015G20KT 33/15 A2995 RMK A01 T03260149  RH  035%=      5-min Rain = 0
KMC5 062305Z 14016KT 32/15 A2995 RMK A01 T03240153  RH  036%=      5-min Rain = 0
KMC5 062306Z 14014KT 32/16 A2994 RMK A01 T03220155  RH  037%=      5-min Rain = 0
KMC5 062307Z 13015KT 32/16 A2994 RMK A01 T03210155  RH  037%=      5-min Rain = 0
KMC5 062308Z 14014KT 32/15 A2994 RMK A01 T03200154  RH  037%=      5-min Rain = 0
KMC5 062309Z 13013KT 32/16 A2994 RMK A01 T03190155  RH  037%=      5-min Rain = 0
KMC5 062310Z 14013G20KT 32/16 A2994 RMK A01 T03180157  RH  038%=      5-min Rain = 0
KMC5 062311Z 14018KT 32/15 A2994 RMK A01 T03170147  RH  036%=      5-min Rain = 0
KMC5 062312Z 14016KT 32/15 A2994 RMK A01 T03180145  RH  035%=      5-min Rain = 0
KMC5 062313Z 15018KT 32/14 A2994 RMK A01 T03190139  RH  034%=      5-min Rain = 0
KMC5 062314Z 14012KT 32/14 A2994 RMK A01 T03190140  RH  034%=      5-min Rain = 0
KMC5 062315Z 14013KT 32/14 A2994 RMK A01 T03190141  RH  034%=      5-min Rain = 0
KMC5 062316Z 15015KT 32/14 A2994 RMK A01 T03180139  RH  034%=      5-min Rain = 0
KMC5 062317Z 14017KT 32/14 A2994 RMK A01 T03180139  RH  034%=      5-min Rain = 0
KMC5 062318Z 14016KT 32/14 A2994 RMK A01 T03180138  RH  033%=      5-min Rain = 0
KMC5 062319Z 14014KT 32/14 A2994 RMK A01 T03180139  RH  034%=      5-min Rain = 0
KMC5 062320Z 15018KT 32/14 A2994 RMK A01 T03180139  RH  034%=      5-min Rain = 0
KMC5 062321Z 15016KT 32/14 A2994 RMK A01 T03180139  RH  034%=      5-min Rain = 0
KMC5 062322Z 15015KT 32/14 A2994 RMK A01 T03180139  RH  034%=      5-min Rain = 0
KMC5 062323Z 15016KT 32/14 A2994 RMK A01 T03180139  RH  034%=      5-min Rain = 0
KMC5 062324Z 15016KT 32/14 A2994 RMK A01 T03180139  RH  034%=      5-min Rain = 0
KMC5 062325Z 14016KT 32/14 A2994 RMK A01 T03190139  RH  034%=      5-min Rain = 0
KMC5 062326Z 15015KT 32/14 A2994 RMK A01 T03180138  RH  034%=      5-min Rain = 0
KMC5 062327Z 15016KT 32/14 A2994 RMK A01 T03180138  RH  034%=      5-min Rain = 0
KMC5 062328Z 15016KT 32/14 A2994 RMK A01 T03180138  RH  033%=      5-min Rain = 0
KMC5 062329Z 15016KT 32/14 A2994 RMK A01 T03180138  RH  033%=      5-min Rain = 0
KMC5 062330Z 15015KT 32/14 A2994 RMK A01 T03180138  RH  033%=      5-min Rain = 0
KMC5 062331Z 15015KT 32/14 A2994 RMK A01 T03180138  RH  034%=      5-min Rain = 0
KMC5 062332Z 15015KT 32/14 A2994 RMK A01 T03180138  RH  034%=      5-min Rain = 0
KMC5 062333Z 15015KT 32/14 A2994 RMK A01 T03180138  RH  034%=      5-min Rain = 0
KMC5 062334Z 15017KT 32/14 A2994 RMK A01 T03170138  RH  034%=      5-min Rain = 0
KMC5 062335Z 15015KT 32/14 A2994 RMK A01 T03170137  RH  034%=      5-min Rain = 0
KMC5 062336Z 15016KT 32/14 A2994 RMK A01 T03170138  RH  034%=      5-min Rain = 0
KMC5 062337Z 15014KT 32/14 A2994 RMK A01 T03170138  RH  034%=      5-min Rain = 0
KMC5 062338Z 15013KT 32/14 A2994 RMK A01 T03180138  RH  034%=      5-min Rain = 0
KMC5 062339Z 14012KT 32/14 A2994 RMK A01 T03170139  RH  034%=      5-min Rain = 0
KMC5 062340Z 15014KT 32/14 A2994 RMK A01 T03170139  RH  034%=      5-min Rain = 0
KMC5 062341Z 14015KT 32/14 A2994 RMK A01 T03170139  RH  034%=      5-min Rain = 0
KMC5 062342Z 15014KT 32/14 A2994 RMK A01 T03170138  RH  034%=      5-min Rain = 0
KMC5 062343Z 14012KT 32/14 A2994 RMK A01 T03180139  RH  034%=      5-min Rain = 0
KMC5 062344Z 14014KT 32/14 A2994 RMK A01 T03180138  RH  034%=      5-min Rain = 0
KMC5 062345Z 15014KT 32/14 A2994 RMK A01 T03180137  RH  033%=      5-min Rain = 0
KMC5 062346Z 15014KT 32/14 A2994 RMK A01 T03180137  RH  033%=      5-min Rain = 0
KMC5 062347Z 15014G19KT 32/14 A2994 RMK A01 T03190136  RH  033%=      5-min Rain = 0
KMC5 062348Z 15013KT 32/14 A2994 RMK A01 T03190137  RH  033%=      5-min Rain = 0
KMC5 062349Z 14012KT 32/14 A2994 RMK A01 T03210138  RH  033%=      5-min Rain = 0
KMC5 062350Z 15014KT 32/14 A2994 RMK A01 T03230138  RH  033%=      5-min Rain = 0
KMC5 062351Z 14016KT 33/14 A2994 RMK A01 T03250139  RH  032%=      5-min Rain = 0
KMC5 062352Z 15016G21KT 33/14 A2994 RMK A01 T03270136  RH  032%=      5-min Rain = 0
KMC5 062353Z 14014KT 33/14 A2994 RMK A01 T03280140  RH  032%=      5-min Rain = 0
KMC5 062354Z 14015KT 33/14 A2994 RMK A01 T03300140  RH  032%=      5-min Rain = 0
KMC5 062355Z 14015KT 33/14 A2994 RMK A01 T03310139  RH  031%=      5-min Rain = 0
KMC5 062356Z 14013KT 33/14 A2993 RMK A01 T03300142  RH  032%=      5-min Rain = 0
KMC5 062357Z 14015KT 33/14 A2993 RMK A01 T03300142  RH  032%=      5-min Rain = 0
KMC5 062358Z 14015KT 33/14 A2993 RMK A01 T03290141  RH  032%=      5-min Rain = 0
KMC5 062359Z 14012KT 33/14 A2993 RMK A01 T03260144  RH  033%=      5-min Rain = 0
KMC5 070000Z 14013KT 33/15 A2993 RMK A01 T03250145  RH  034%=      5-min Rain = 0
KMC5 070001Z 13012KT 32/15 A2993 RMK A01 T03240145  RH  034%=      5-min Rain = 0
KMC5 070002Z 14013KT 32/15 A2993 RMK A01 T03240145  RH  034%=      5-min Rain = 0
KMC5 070003Z 14012KT 33/15 A2993 RMK A01 T03250146  RH  034%=      5-min Rain = 0
KMC5 070004Z 14013KT 33/15 A2993 RMK A01 T03260147  RH  034%=      5-min Rain = 0
KMC5 070005Z 14014KT 33/14 A2993 RMK A01 T03270143  RH  033%=      5-min Rain = 0
KMC5 070006Z 13012KT 33/14 A2993 RMK A01 T03270144  RH  033%=      5-min Rain = 0
KMC5 070007Z 14013KT 33/15 A2994 RMK A01 T03260145  RH  033%=      5-min Rain = 0
KMC5 070008Z 13015KT 33/14 A2994 RMK A01 T03270144  RH  033%=      5-min Rain = 0
KMC5 070009Z 14014KT 33/14 A2994 RMK A01 T03270142  RH  033%=      5-min Rain = 0
KMC5 070010Z 14015KT 33/14 A2994 RMK A01 T03270143  RH  033%=      5-min Rain = 0
KMC5 070011Z 15013G18KT 33/14 A2994 RMK A01 T03270142  RH  033%=      5-min Rain = 0
KMC5 070012Z 15016KT 33/14 A2994 RMK A01 T03270141  RH  032%=      5-min Rain = 0
KMC5 070013Z 15013KT 33/14 A2994 RMK A01 T03270143  RH  033%=      5-min Rain = 0
KMC5 070014Z 15020KT 33/14 A2994 RMK A01 T03280139  RH  032%=      5-min Rain = 0
KMC5 070015Z 15017KT 33/14 A2994 RMK A01 T03280138  RH  032%=      5-min Rain = 0
KMC5 070016Z 14014KT 33/14 A2994 RMK A01 T03280140  RH  032%=      5-min Rain = 0
KMC5 070017Z 14018KT 33/14 A2994 RMK A01 T03280140  RH  032%=      5-min Rain = 0
KMC5 070018Z 15017KT 33/14 A2994 RMK A01 T03270137  RH  032%=      5-min Rain = 0
KMC5 070019Z 15016KT 33/14 A2994 RMK A01 T03270139  RH  032%=      5-min Rain = 0
KMC5 070020Z 15018KT 33/14 A2994 RMK A01 T03270139  RH  032%=      5-min Rain = 0
KMC5 070021Z 15014KT 33/14 A2994 RMK A01 T03270140  RH  032%=      5-min Rain = 0
KMC5 070022Z 15015KT 33/14 A2994 RMK A01 T03270143  RH  033%=      5-min Rain = 0
KMC5 070023Z 15017G22KT 33/14 A2994 RMK A01 T03260141  RH  033%=      5-min Rain = 0
KMC5 070024Z 15019KT 33/14 A2994 RMK A01 T03260140  RH  032%=      5-min Rain = 0
KMC5 070025Z 15020KT 33/14 A2994 RMK A01 T03260140  RH  033%=      5-min Rain = 0
KMC5 070026Z 14016KT 33/14 A2994 RMK A01 T03260141  RH  033%=      5-min Rain = 0
KMC5 070027Z 14019G26KT 33/14 A2994 RMK A01 T03260143  RH  033%=      5-min Rain = 0
KMC5 070028Z 15018G23KT 33/14 A2994 RMK A01 T03250141  RH  033%=      5-min Rain = 0
KMC5 070029Z 15018KT 32/14 A2994 RMK A01 T03240143  RH  033%=      5-min Rain = 0
KMC5 070030Z 14019KT 32/14 A2994 RMK A01 T03240143  RH  034%=      5-min Rain = 0
KMC5 070031Z 14017KT 32/14 A2994 RMK A01 T03240144  RH  034%=      5-min Rain = 0
KMC5 070032Z 14018KT 32/14 A2994 RMK A01 T03230144  RH  034%=      5-min Rain = 0
KMC5 070033Z 15019KT 32/14 A2994 RMK A01 T03230144  RH  034%=      5-min Rain = 0
KMC5 070034Z 15020KT 32/15 A2994 RMK A01 T03220145  RH  034%=      5-min Rain = 0
KMC5 070035Z 15018KT 32/15 A2994 RMK A01 T03220146  RH  034%=      5-min Rain = 0
KMC5 070036Z 15018KT 32/15 A2994 RMK A01 T03220146  RH  035%=      5-min Rain = 0
KMC5 070037Z 15018G23KT 32/15 A2994 RMK A01 T03220146  RH  035%=      5-min Rain = 0
KMC5 070038Z 15019KT 32/15 A2994 RMK A01 T03220147  RH  035%=      5-min Rain = 0
KMC5 070039Z 15018KT 32/15 A2994 RMK A01 T03220147  RH  035%=      5-min Rain = 0
KMC5 070040Z 15017G22KT 32/15 A2994 RMK A01 T03220147  RH  035%=      5-min Rain = 0
KMC5 070041Z 15016KT 32/15 A2994 RMK A01 T03220147  RH  035%=      5-min Rain = 0
KMC5 070042Z 15017KT 32/15 A2994 RMK A01 T03210149  RH  035%=      5-min Rain = 0
KMC5 070043Z 15018KT 32/15 A2994 RMK A01 T03210148  RH  035%=      5-min Rain = 0
KMC5 070044Z 15019KT 32/15 A2994 RMK A01 T03210149  RH  035%=      5-min Rain = 0
KMC5 070045Z 15016KT 32/15 A2994 RMK A01 T03210149  RH  035%=      5-min Rain = 0
KMC5 070046Z 16017KT 32/15 A2994 RMK A01 T03210150  RH  036%=      5-min Rain = 0
KMC5 070047Z 15015KT 32/15 A2994 RMK A01 T03200150  RH  036%=      5-min Rain = 0
KMC5 070048Z 15016KT 32/15 A2994 RMK A01 T03200150  RH  036%=      5-min Rain = 0
KMC5 070049Z 15018KT 32/15 A2994 RMK A01 T03200150  RH  036%=      5-min Rain = 0
KMC5 070050Z 15015KT 32/15 A2994 RMK A01 T03190150  RH  036%=      5-min Rain = 0
KMC5 070051Z 16015KT 32/15 A2994 RMK A01 T03190150  RH  036%=      5-min Rain = 0
KMC5 070052Z 16016KT 32/15 A2994 RMK A01 T03190151  RH  036%=      5-min Rain = 0
KMC5 070053Z 16016KT 32/15 A2994 RMK A01 T03180151  RH  036%=      5-min Rain = 0
KMC5 070054Z 15018KT 32/15 A2994 RMK A01 T03180151  RH  036%=      5-min Rain = 0
KMC5 070055Z 15017KT 32/15 A2994 RMK A01 T03170150  RH  036%=      5-min Rain = 0
KMC5 070056Z 16018KT 32/15 A2994 RMK A01 T03170151  RH  037%=      5-min Rain = 0
KMC5 070057Z 16019KT 32/15 A2994 RMK A01 T03170150  RH  036%=      5-min Rain = 0
KMC5 070058Z 15017KT 32/15 A2994 RMK A01 T03170150  RH  037%=      5-min Rain = 0
KMC5 070059Z 15014KT 32/15 A2994 RMK A01 T03160151  RH  037%=      5-min Rain = 0
KMC5 070100Z 15016KT 32/15 A2994 RMK A01 T03160152  RH  037%=      5-min Rain = 0
KMC5 070101Z 15016KT 32/15 A2994 RMK A01 T03150152  RH  037%=      5-min Rain = 0
KMC5 070102Z 15016KT 31/15 A2994 RMK A01 T03140152  RH  037%=      5-min Rain = 0
KMC5 070103Z 16015KT 31/15 A2994 RMK A01 T03130152  RH  038%=      5-min Rain = 0
KMC5 070104Z 16016KT 31/15 A2994 RMK A01 T03120152  RH  038%=      5-min Rain = 0
KMC5 070105Z 16016KT 31/15 A2994 RMK A01 T03120152  RH  038%=      5-min Rain = 0
KMC5 070106Z 16015KT 31/15 A2994 RMK A01 T03120153  RH  038%=      5-min Rain = 0
KMC5 070107Z 16016KT 31/15 A2995 RMK A01 T03110152  RH  038%=      5-min Rain = 0
KMC5 070108Z 16015KT 31/15 A2995 RMK A01 T03110152  RH  038%=      5-min Rain = 0
KMC5 070109Z 16014KT 31/15 A2995 RMK A01 T03110153  RH  038%=      5-min Rain = 0
KMC5 070110Z 16014KT 31/15 A2995 RMK A01 T03100152  RH  038%=      5-min Rain = 0
KMC5 070111Z 15015KT 31/15 A2995 RMK A01 T03090153  RH  039%=      5-min Rain = 0
KMC5 070112Z 16018KT 31/15 A2995 RMK A01 T03090152  RH  039%=      5-min Rain = 0
KMC5 070113Z 16015KT 31/15 A2995 RMK A01 T03090152  RH  039%=      5-min Rain = 0
KMC5 070114Z 15015KT 31/15 A2995 RMK A01 T03100153  RH  039%=      5-min Rain = 0
KMC5 070115Z 15016KT 31/15 A2995 RMK A01 T03090152  RH  039%=      5-min Rain = 0
KMC5 070116Z 15014KT 31/15 A2995 RMK A01 T03090153  RH  039%=      5-min Rain = 0
KMC5 070117Z 15013KT 31/15 A2995 RMK A01 T03080153  RH  039%=      5-min Rain = 0
KMC5 070118Z 15014KT 31/15 A2995 RMK A01 T03060153  RH  039%=      5-min Rain = 0
KMC5 070119Z 15014KT 31/15 A2995 RMK A01 T03060153  RH  040%=      5-min Rain = 0
KMC5 070120Z 15011KT 31/15 A2995 RMK A01 T03060154  RH  040%=      5-min Rain = 0
KMC5 070121Z 15012KT 31/15 A2995 RMK A01 T03050154  RH  040%=      5-min Rain = 0
KMC5 070122Z 15014KT 30/15 A2995 RMK A01 T03040154  RH  040%=      5-min Rain = 0
KMC5 070123Z 15013KT 30/15 A2995 RMK A01 T03040153  RH  040%=      5-min Rain = 0
KMC5 070124Z 15014KT 30/15 A2995 RMK A01 T03040154  RH  040%=      5-min Rain = 0
KMC5 070125Z 15014KT 30/15 A2995 RMK A01 T03030154  RH  040%=      5-min Rain = 0
KMC5 070126Z 15014KT 30/15 A2995 RMK A01 T03030153  RH  040%=      5-min Rain = 0
KMC5 070127Z 15013KT 30/15 A2995 RMK A01 T03030153  RH  040%=      5-min Rain = 0
KMC5 070128Z 15015KT 30/15 A2995 RMK A01 T03030153  RH  040%=      5-min Rain = 0
KMC5 070129Z 15014KT 30/15 A2995 RMK A01 T03030153  RH  040%=      5-min Rain = 0
KMC5 070130Z 14014G19KT 30/15 A2995 RMK A01 T03030153  RH  040%=      5-min Rain = 0
KMC5 070131Z 14013KT 30/15 A2995 RMK A01 T03030153  RH  040%=      5-min Rain = 0
KMC5 070132Z 14013KT 30/15 A2995 RMK A01 T03020154  RH  041%=      5-min Rain = 0
KMC5 070133Z 15012KT 30/15 A2995 RMK A01 T03020154  RH  041%=      5-min Rain = 0
KMC5 070134Z 15013KT 30/15 A2995 RMK A01 T03010154  RH  041%=      5-min Rain = 0
KMC5 070135Z 15012KT 30/15 A2995 RMK A01 T03000154  RH  041%=      5-min Rain = 0
KMC5 070136Z 15012KT 30/15 A2995 RMK A01 T02990154  RH  041%=      5-min Rain = 0
KMC5 070137Z 16014KT 30/16 A2995 RMK A01 T02990155  RH  042%=      5-min Rain = 0
KMC5 070138Z 15013KT 30/15 A2995 RMK A01 T02990154  RH  041%=      5-min Rain = 0
KMC5 070139Z 15011KT 30/16 A2995 RMK A01 T02990155  RH  042%=      5-min Rain = 0
KMC5 070140Z 15012KT 30/16 A2995 RMK A01 T02980155  RH  042%=      5-min Rain = 0
KMC5 070141Z 15012KT 30/16 A2995 RMK A01 T02970155  RH  042%=      5-min Rain = 0
KMC5 070142Z 15011KT 30/16 A2995 RMK A01 T02980155  RH  042%=      5-min Rain = 0
KMC5 070143Z 16013KT 30/16 A2995 RMK A01 T02970155  RH  042%=      5-min Rain = 0
KMC5 070144Z 15013KT 30/16 A2995 RMK A01 T02960155  RH  042%=      5-min Rain = 0
KMC5 070145Z 15011KT 30/16 A2995 RMK A01 T02960156  RH  042%=      5-min Rain = 0
KMC5 070146Z 15011KT 30/16 A2995 RMK A01 T02960155  RH  043%=      5-min Rain = 0
KMC5 070147Z 15013KT 30/16 A2995 RMK A01 T02950156  RH  043%=      5-min Rain = 0
KMC5 070148Z 16013KT 30/16 A2995 RMK A01 T02950155  RH  043%=      5-min Rain = 0
KMC5 070149Z 16013KT 30/16 A2995 RMK A01 T02960156  RH  043%=      5-min Rain = 0
KMC5 070150Z 15013KT 30/16 A2995 RMK A01 T02960156  RH  043%=      5-min Rain = 0
KMC5 070151Z 16014KT 30/16 A2995 RMK A01 T02960156  RH  043%=      5-min Rain = 0
KMC5 070152Z 16012KT 30/16 A2995 RMK A01 T02960156  RH  043%=      5-min Rain = 0
KMC5 070153Z 15014KT 30/16 A2995 RMK A01 T02960156  RH  043%=      5-min Rain = 0
KMC5 070154Z 16013KT 30/16 A2995 RMK A01 T02960156  RH  043%=      5-min Rain = 0
KMC5 070155Z 16012KT 30/16 A2995 RMK A01 T02950156  RH  043%=      5-min Rain = 0
KMC5 070156Z 16013KT 30/16 A2995 RMK A01 T02950156  RH  043%=      5-min Rain = 0
KMC5 070157Z 16012KT 30/16 A2995 RMK A01 T02950156  RH  043%=      5-min Rain = 0
KMC5 070158Z 15013KT 30/16 A2995 RMK A01 T02950156  RH  043%=      5-min Rain = 0
KMC5 070159Z 16012KT 30/16 A2995 RMK A01 T02950157  RH  043%=      5-min Rain = 0
KMC5 070200Z 16011KT 29/16 A2995 RMK A01 T02940157  RH  043%=      5-min Rain = 0
KMC5 070201Z 16010KT 29/16 A2995 RMK A01 T02930157  RH  044%=      5-min Rain = 0
KMC5 070202Z 15011KT 29/16 A2995 RMK A01 T02930157  RH  044%=      5-min Rain = 0
KMC5 070203Z 15012KT 29/16 A2995 RMK A01 T02920157  RH  044%=      5-min Rain = 0
KMC5 070204Z 16012KT 29/16 A2995 RMK A01 T02920157  RH  044%=      5-min Rain = 0
KMC5 070205Z 15012KT 29/16 A2995 RMK A01 T02920157  RH  044%=      5-min Rain = 0
KMC5 070206Z 16011KT 29/16 A2994 RMK A01 T02920157  RH  044%=      5-min Rain = 0
KMC5 070207Z 15012KT 29/16 A2994 RMK A01 T02920158  RH  044%=      5-min Rain = 0
KMC5 070208Z 16011KT 29/16 A2994 RMK A01 T02920157  RH  044%=      5-min Rain = 0
KMC5 070209Z 15014KT 29/16 A2994 RMK A01 T02910157  RH  044%=      5-min Rain = 0
KMC5 070210Z 16011KT 29/16 A2994 RMK A01 T02920158  RH  044%=      5-min Rain = 0
KMC5 070211Z 15012KT 29/16 A2994 RMK A01 T02910158  RH  044%=      5-min Rain = 0
KMC5 070212Z 15012KT 29/16 A2994 RMK A01 T02910158  RH  045%=      5-min Rain = 0
KMC5 070213Z 16012KT 29/16 A2994 RMK A01 T02900158  RH  045%=      5-min Rain = 0
KMC5 070214Z 16012KT 29/16 A2994 RMK A01 T02900158  RH  045%=      5-min Rain = 0
KMC5 070215Z 16013KT 29/16 A2994 RMK A01 T02900159  RH  045%=      5-min Rain = 0
KMC5 070216Z 16013KT 29/16 A2994 RMK A01 T02900159  RH  045%=      5-min Rain = 0
KMC5 070217Z 16013KT 29/16 A2994 RMK A01 T02900159  RH  045%=      5-min Rain = 0
KMC5 070218Z 16012KT 29/16 A2994 RMK A01 T02900159  RH  045%=      5-min Rain = 0
KMC5 070219Z 16013KT 29/16 A2994 RMK A01 T02890159  RH  045%=      5-min Rain = 0
KMC5 070220Z 16013KT 29/16 A2994 RMK A01 T02890159  RH  045%=      5-min Rain = 0
KMC5 070221Z 16012KT 29/16 A2995 RMK A01 T02890159  RH  045%=      5-min Rain = 0
KMC5 070222Z 15012KT 29/16 A2995 RMK A01 T02890159  RH  045%=      5-min Rain = 0
KMC5 070223Z 15012KT 29/16 A2995 RMK A01 T02890159  RH  045%=      5-min Rain = 0
KMC5 070224Z 16014KT 29/16 A2995 RMK A01 T02890160  RH  046%=      5-min Rain = 0
KMC5 070225Z 16015KT 29/16 A2995 RMK A01 T02890159  RH  046%=      5-min Rain = 0
KMC5 070226Z 16014KT 29/16 A2995 RMK A01 T02890159  RH  045%=      5-min Rain = 0
KMC5 070227Z 15014KT 29/16 A2995 RMK A01 T02900160  RH  045%=      5-min Rain = 0
KMC5 070228Z 15013KT 29/16 A2995 RMK A01 T02900160  RH  046%=      5-min Rain = 0
KMC5 070229Z 16014KT 29/16 A2995 RMK A01 T02890160  RH  046%=      5-min Rain = 0
KMC5 070230Z 16016KT 29/16 A2994 RMK A01 T02880160  RH  046%=      5-min Rain = 0
KMC5 070231Z 16016KT 29/16 A2994 RMK A01 T02880160  RH  046%=      5-min Rain = 0
KMC5 070232Z 16017KT 29/16 A2994 RMK A01 T02890160  RH  046%=      5-min Rain = 0
KMC5 070233Z 16015KT 29/16 A2994 RMK A01 T02890161  RH  046%=      5-min Rain = 0
KMC5 070234Z 16014KT 29/16 A2994 RMK A01 T02890161  RH  046%=      5-min Rain = 0
KMC5 070235Z 16016KT 29/16 A2994 RMK A01 T02880161  RH  046%=      5-min Rain = 0
KMC5 070236Z 16016KT 29/16 A2994 RMK A01 T02880161  RH  046%=      5-min Rain = 0
KMC5 070237Z 15014KT 29/16 A2994 RMK A01 T02890161  RH  046%=      5-min Rain = 0
KMC5 070238Z 16019KT 29/16 A2994 RMK A01 T02890161  RH  046%=      5-min Rain = 0
KMC5 070239Z 16016KT 29/16 A2994 RMK A01 T02890160  RH  046%=      5-min Rain = 0
KMC5 070240Z 16016KT 29/16 A2994 RMK A01 T02900161  RH  045%=      5-min Rain = 0
KMC5 070241Z 16015KT 29/16 A2995 RMK A01 T02900161  RH  045%=      5-min Rain = 0
KMC5 070242Z 16014KT 29/16 A2995 RMK A01 T02900161  RH  046%=      5-min Rain = 0
KMC5 070243Z 16015KT 29/16 A2995 RMK A01 T02900161  RH  046%=      5-min Rain = 0
KMC5 070244Z 16014KT 29/16 A2995 RMK A01 T02900161  RH  046%=      5-min Rain = 0
KMC5 070245Z 16015KT 29/16 A2995 RMK A01 T02900161  RH  046%=      5-min Rain = 0
KMC5 070246Z 17014KT 29/16 A2995 RMK A01 T02900161  RH  046%=      5-min Rain = 0
KMC5 070247Z 16013KT 29/16 A2995 RMK A01 T02900161  RH  046%=      5-min Rain = 0
KMC5 070248Z 16014KT 29/16 A2995 RMK A01 T02900161  RH  046%=      5-min Rain = 0
KMC5 070249Z 17015KT 29/16 A2995 RMK A01 T02890161  RH  046%=      5-min Rain = 0
KMC5 070250Z 16016KT 29/16 A2995 RMK A01 T02900161  RH  046%=      5-min Rain = 0
KMC5 070251Z 17013KT 29/16 A2995 RMK A01 T02900161  RH  046%=      5-min Rain = 0
KMC5 070252Z 16012KT 29/16 A2995 RMK A01 T02900162  RH  046%=      5-min Rain = 0
KMC5 070253Z 16013G18KT 29/16 A2995 RMK A01 T02880161  RH  046%=      5-min Rain = 0
KMC5 070254Z 16016KT 29/16 A2995 RMK A01 T02880161  RH  046%=      5-min Rain = 0
KMC5 070255Z 16016KT 29/16 A2995 RMK A01 T02890160  RH  046%=      5-min Rain = 0
KMC5 070256Z 16013KT 29/16 A2995 RMK A01 T02900161  RH  046%=      5-min Rain = 0
KMC5 070257Z 16013KT 29/16 A2996 RMK A01 T02890161  RH  046%=      5-min Rain = 0
KMC5 070258Z 17015KT 29/16 A2996 RMK A01 T02890161  RH  046%=      5-min Rain = 0
KMC5 070259Z 16014KT 29/16 A2996 RMK A01 T02890160  RH  046%=      5-min Rain = 0
KMC5 070300Z 16012KT 29/16 A2996 RMK A01 T02890161  RH  046%=      5-min Rain = 0
KMC5 070301Z 16015KT 29/16 A2996 RMK A01 T02890161  RH  046%=      5-min Rain = 0
KMC5 070302Z 16014KT 29/16 A2996 RMK A01 T02890161  RH  046%=      5-min Rain = 0
KMC5 070303Z 16015KT 29/16 A2996 RMK A01 T02890161  RH  046%=      5-min Rain = 0
KMC5 070304Z 16014KT 29/16 A2996 RMK A01 T02890160  RH  046%=      5-min Rain = 0
KMC5 070305Z 16013KT 29/16 A2996 RMK A01 T02890161  RH  046%=      5-min Rain = 0
KMC5 070306Z 16012KT 29/16 A2996 RMK A01 T02890162  RH  046%=      5-min Rain = 0
KMC5 070307Z 16014KT 29/16 A2996 RMK A01 T02890162  RH  046%=      5-min Rain = 0
KMC5 070308Z 16013KT 29/16 A2996 RMK A01 T02890161  RH  046%=      5-min Rain = 0
KMC5 070309Z 17014KT 29/16 A2996 RMK A01 T02890161  RH  046%=      5-min Rain = 0
KMC5 070310Z 16013KT 29/16 A2996 RMK A01 T02890161  RH  046%=      5-min Rain = 0
KMC5 070311Z 16012KT 29/16 A2997 RMK A01 T02900161  RH  046%=      5-min Rain = 0
KMC5 070312Z 16012KT 29/16 A2997 RMK A01 T02900161  RH  046%=      5-min Rain = 0
KMC5 070313Z 16012KT 29/16 A2997 RMK A01 T02900161  RH  046%=      5-min Rain = 0
KMC5 070314Z 17011KT 29/16 A2997 RMK A01 T02900161  RH  046%=      5-min Rain = 0
KMC5 070315Z 16010KT 29/16 A2997 RMK A01 T02890161  RH  046%=      5-min Rain = 0
KMC5 070316Z 16010G15KT 29/16 A2998 RMK A01 T02900161  RH  046%=      5-min Rain = 0
KMC5 070317Z 16009KT 29/16 A2998 RMK A01 T02900161  RH  046%=      5-min Rain = 0
KMC5 070318Z 17008KT 29/16 A2998 RMK A01 T02900160  RH  045%=      5-min Rain = 0
KMC5 070319Z 16007KT 29/16 A2999 RMK A01 T02910161  RH  045%=      5-min Rain = 0
KMC5 070320Z 15004KT 29/16 A2999 RMK A01 T02910161  RH  045%=      5-min Rain = 0
KMC5 070321Z 12004KT 29/16 A2999 RMK A01 T02910161  RH  045%=      5-min Rain = 0
KMC5 070322Z 09003KT 29/16 A30 RMK A01 T02910161  RH  045%=      5-min Rain = 0
KMC5 070323Z 03003KT 29/16 A30 RMK A01 T02910161  RH  045%=      5-min Rain = 0
KMC5 070324Z 02006KT 29/16 A30 RMK A01 T02910162  RH  046%=      5-min Rain = 0
KMC5 070325Z 01009KT 29/16 A30 RMK A01 T02890162  RH  046%=      5-min Rain = 0
KMC5 070326Z 00009KT 29/16 A30 RMK A01 T02880163  RH  047%=      5-min Rain = 0
KMC5 070327Z 36009KT 29/16 A30 RMK A01 T02870163  RH  047%=      5-min Rain = 0
KMC5 070328Z 36010KT 29/16 A30 RMK A01 T02860161  RH  047%=      5-min Rain = 0
KMC5 070329Z 01008KT 29/16 A30 RMK A01 T02860162  RH  047%=      5-min Rain = 0
KMC5 070330Z 02009KT 29/16 A30 RMK A01 T02860162  RH  047%=      5-min Rain = 0
KMC5 070331Z 02009KT 29/16 A30 RMK A01 T02850162  RH  047%=      5-min Rain = 0
KMC5 070332Z 02008KT 29/16 A30 RMK A01 T02850162  RH  047%=      5-min Rain = 0
KMC5 070333Z 02009KT 28/16 A30 RMK A01 T02840162  RH  047%=      5-min Rain = 0
KMC5 070334Z 02009KT 28/16 A30 RMK A01 T02840162  RH  048%=      5-min Rain = 0
KMC5 070335Z 02011KT 28/16 A30 RMK A01 T02840161  RH  047%=      5-min Rain = 0
KMC5 070336Z 01010KT 28/16 A30 RMK A01 T02840160  RH  047%=      5-min Rain = 0
KMC5 070337Z 01011KT 29/16 A30 RMK A01 T02860159  RH  046%=      5-min Rain = 0
KMC5 070338Z 00010KT 29/16 A30 RMK A01 T02890160  RH  046%=      5-min Rain = 0
KMC5 070339Z 03005KT 29/16 A30 RMK A01 T02910159  RH  045%=      5-min Rain = 0
KMC5 070340Z 03008KT 29/16 A30 RMK A01 T02920161  RH  045%=      5-min Rain = 0
KMC5 070341Z 03007KT 29/16 A30 RMK A01 T02910161  RH  045%=      5-min Rain = 0
KMC5 070342Z 02007KT 29/16 A3001 RMK A01 T02910160  RH  045%=      5-min Rain = 0
KMC5 070343Z 04005KT 29/16 A3001 RMK A01 T02910158  RH  044%=      5-min Rain = 0
KMC5 070344Z 13001KT 29/16 A3001 RMK A01 T02930156  RH  043%=      5-min Rain = 0
KMC5 070345Z 35002KT 30/16 A3001 RMK A01 T02960156  RH  043%=      5-min Rain = 0
KMC5 070346Z 11004KT 30/16 A3001 RMK A01 T02980157  RH  042%=      5-min Rain = 0
KMC5 070347Z 23003KT 30/16 A3001 RMK A01 T02990157  RH  042%=      5-min Rain = 0
KMC5 070348Z 26006KT 30/16 A3001 RMK A01 T03000158  RH  042%=      5-min Rain = 0
KMC5 070349Z 21002KT 30/16 A3001 RMK A01 T03010158  RH  042%=      5-min Rain = 0
KMC5 070350Z 26003KT 30/16 A3001 RMK A01 T03000157  RH  042%=      5-min Rain = 0
KMC5 070351Z 28005KT 30/16 A3001 RMK A01 T03000159  RH  043%=      5-min Rain = 0
KMC5 070352Z 32008KT 30/16 A3001 RMK A01 T02990160  RH  043%=      5-min Rain = 0
KMC5 070353Z 30005KT 30/16 A3002 RMK A01 T02990157  RH  042%=      5-min Rain = 0
KMC5 070354Z 29004KT 30/16 A3002 RMK A01 T02990162  RH  043%=      5-min Rain = 0
KMC5 070355Z 32002KT 30/16 A3002 RMK A01 T02980159  RH  043%=      5-min Rain = 0
KMC5 070356Z 30004KT 30/16 A3002 RMK A01 T02980158  RH  043%=      5-min Rain = 0
KMC5 070357Z 30006KT 30/16 A3002 RMK A01 T02980160  RH  043%=      5-min Rain = 0
KMC5 070358Z 29005KT 30/16 A3002 RMK A01 T02980162  RH  044%=      5-min Rain = 0
KMC5 070359Z 30007KT 30/17 A3002 RMK A01 T02960165  RH  045%=      5-min Rain = 0
KMC5 070400Z 31008KT 29/17 A3002 RMK A01 T02940167  RH  046%=      5-min Rain = 0
KMC5 070401Z 33008KT 29/17 A3002 RMK A01 T02910166  RH  047%=      5-min Rain = 0
KMC5 070402Z 33009KT 29/17 A3002 RMK A01 T02900168  RH  048%=      5-min Rain = 0
KMC5 070403Z 32006KT 29/17 A3003 RMK A01 T02880165  RH  047%=      5-min Rain = 0
KMC5 070404Z 33006KT 29/17 A3003 RMK A01 T02880170  RH  049%=      5-min Rain = 0
KMC5 070405Z 32007KT 29/17 A3003 RMK A01 T02860173  RH  050%=      5-min Rain = 0
KMC5 070406Z 30007KT 28/18 A3004 RMK A01 T02840176  RH  052%=      5-min Rain = 0
KMC5 070407Z 30012G17KT 28/18 A3004 RMK A01 T02800176  RH  053%=      5-min Rain = 0
KMC5 070408Z 29015KT 28/17 A3005 RMK A01 T02780167  RH  051%=      5-min Rain = 0
KMC5 070409Z 30018KT 28/17 A3005 RMK A01 T02800168  RH  051%=      5-min Rain = 0
KMC5 070410Z 30025KT 28/17 A3005 RMK A01 T02800172  RH  052%=      5-min Rain = 0
KMC5 070411Z 30026KT 27/18 A3006 RMK A01 T02740177  RH  055%=      5-min Rain = 0
KMC5 070412Z 30024G30KT 26/18 A3006 RMK A01 T02640178  RH  059%=      5-min Rain = 0
KMC5 070413Z 30026KT 26/18 A3006 RMK A01 T02560183  RH  064%=      5-min Rain = 0
KMC5 070414Z 29028G33KT 25/19 A3006 RMK A01 T02450185  RH  069%=      5-min Rain = 0.01
KMC5 070415Z 29027G32KT 24/18 A3006 RMK A01 T02380184  RH  072%=      5-min Rain = 0.01
KMC5 070416Z 30021G29KT 24/18 A3006 RMK A01 T02370178  RH  069%=      5-min Rain = 0.03
KMC5 070417Z 31015G23KT 24/17 A3006 RMK A01 T02430173  RH  065%=      5-min Rain = 0.01
KMC5 070418Z 30009G15KT 25/17 A3006 RMK A01 T02500170  RH  061%=      5-min Rain = 0.01
KMC5 070419Z 29006KT 26/17 A3006 RMK A01 T02560174  RH  061%=      5-min Rain = 0
KMC5 070420Z 29005KT 26/17 A3006 RMK A01 T02570171  RH  059%=      5-min Rain = 0
KMC5 070421Z 32012KT 26/18 A3006 RMK A01 T02580176  RH  061%=      5-min Rain = 0
KMC5 070422Z 31014KT 26/18 A3006 RMK A01 T02550183  RH  065%=      5-min Rain = 0.01
KMC5 070423Z 33013KT 25/19 A3006 RMK A01 T02460185  RH  069%=      5-min Rain = 0.01
KMC5 070424Z 34012KT 24/19 A3005 RMK A01 T02380187  RH  073%=      5-min Rain = 0.01
KMC5 070425Z 33007KT 23/19 A3006 RMK A01 T02320188  RH  076%=      5-min Rain = 0
KMC5 070426Z 29003KT 23/19 A3006 RMK A01 T02290185  RH  076%=      5-min Rain = 0
KMC5 070427Z 29004KT 23/17 A3007 RMK A01 T02300172  RH  070%=      5-min Rain = 0
KMC5 070428Z 35004KT 24/17 A3006 RMK A01 T02410168  RH  064%=      5-min Rain = 0
KMC5 070429Z 04004KT 25/18 A3006 RMK A01 T02500176  RH  063%=      5-min Rain = 0.01
KMC5 070430Z 05003KT 25/18 A3006 RMK A01 T02520180  RH  064%=      5-min Rain = 0.03
KMC5 070431Z 35003KT 25/18 A3005 RMK A01 T02500180  RH  065%=      5-min Rain = 0.02
KMC5 070432Z 34005KT 25/18 A3005 RMK A01 T02490175  RH  064%=      5-min Rain = 0.01
KMC5 070433Z 03004KT 25/18 A3005 RMK A01 T02490179  RH  065%=      5-min Rain = 0
KMC5 070434Z 05006KT 25/19 A3005 RMK A01 T02460188  RH  070%=      5-min Rain = 0
KMC5 070435Z 06008KT 24/19 A3004 RMK A01 T02380188  RH  073%=      5-min Rain = 0
KMC5 070436Z 06007KT 23/19 A3004 RMK A01 T02330188  RH  076%=      5-min Rain = 0
KMC5 070437Z 06009KT 23/19 A3004 RMK A01 T02280188  RH  078%=      5-min Rain = 0
KMC5 070438Z 06010KT 23/18 A3004 RMK A01 T02270182  RH  076%=      5-min Rain = 0
KMC5 070439Z 08009KT 23/18 A3004 RMK A01 T02320184  RH  075%=      5-min Rain = 0
KMC5 070440Z 07011KT 23/19 A3003 RMK A01 T02320187  RH  076%=      5-min Rain = 0
KMC5 070441Z 07011KT 23/18 A3002 RMK A01 T02320183  RH  074%=      5-min Rain = 0
KMC5 070442Z 07011KT 23/18 A3002 RMK A01 T02340184  RH  074%=      5-min Rain = 0
KMC5 070443Z 08012KT 23/19 A3002 RMK A01 T02330186  RH  075%=      5-min Rain = 0
KMC5 070444Z 08011KT 23/18 A3002 RMK A01 T02320184  RH  074%=      5-min Rain = 0
KMC5 070445Z 08011KT 23/18 A3002 RMK A01 T02340183  RH  073%=      5-min Rain = 0
KMC5 070446Z 10007KT 24/18 A3001 RMK A01 T02350182  RH  072%=      5-min Rain = 0
KMC5 070447Z 08009KT 24/18 A3001 RMK A01 T02380179  RH  069%=      5-min Rain = 0
KMC5 070448Z 08010KT 24/19 A3001 RMK A01 T02390186  RH  072%=      5-min Rain = 0
KMC5 070449Z 08010KT 24/18 A3001 RMK A01 T02360184  RH  073%=      5-min Rain = 0
KMC5 070450Z 08009KT 24/19 A3001 RMK A01 T02350185  RH  073%=      5-min Rain = 0
KMC5 070451Z 09010KT 23/18 A3001 RMK A01 T02340184  RH  073%=      5-min Rain = 0
KMC5 070452Z 10010KT 23/18 A3001 RMK A01 T02340181  RH  072%=      5-min Rain = 0
KMC5 070453Z 11008KT 24/18 A3001 RMK A01 T02390178  RH  069%=      5-min Rain = 0
KMC5 070454Z 11008KT 24/18 A30 RMK A01 T02410181  RH  069%=      5-min Rain = 0
KMC5 070455Z 10009KT 24/19 A30 RMK A01 T02400185  RH  071%=      5-min Rain = 0
KMC5 070456Z 11009KT 24/18 A30 RMK A01 T02350184  RH  073%=      5-min Rain = 0
KMC5 070457Z 11011KT 23/18 A30 RMK A01 T02340184  RH  074%=      5-min Rain = 0
KMC5 070458Z 11011KT 23/18 A2999 RMK A01 T02330183  RH  073%=      5-min Rain = 0
KMC5 070459Z 12011KT 23/19 A2999 RMK A01 T02340187  RH  075%=      5-min Rain = 0

Page generated in 0.065 seconds.